<?xml version="1.0" encoding="UTF-8" standalone="no" ?>
<gpx xmlns="http://www.topografix.com/GPX/1/1" xmlns:xsi="http://www.w3.org/2001/XMLSchema-instance" xsi:schemaLocation="http://www.topografix.com/GPX/1/1 http://www.topografix.com/GPX/1/1/gpx.xsd" version="1.1" creator="VisuGPX - https://www.visugpx.com">
  <metadata>
    <name>Lamazière (Combrailles)</name>
    <desc><![CDATA[Balade \"Chamina\" modifiée...
]]></desc>
  </metadata>
  <wpt lat="45.94336" lon="2.7637">
    <ele>647</ele>
    <name><![CDATA[départ]]></name>
    <desc><![CDATA[Bâtiment]]></desc>
    <cmt><![CDATA[Bâtiment]]></cmt>
  </wpt>
  <trk>
    <name><![CDATA[la mazière2]]></name>
    <trkseg>
      <trkpt lat="45.94378" lon="2.76395">
        <ele>651.9111328</ele>
        <time>2013-09-25T07:26:51Z</time>
      </trkpt>
      <trkpt lat="45.94379" lon="2.76395">
        <ele>654.3146973</ele>
        <time>2013-09-25T07:27:01Z</time>
      </trkpt>
      <trkpt lat="45.94379" lon="2.76395">
        <ele>649.5078125</ele>
        <time>2013-09-25T07:27:03Z</time>
      </trkpt>
      <trkpt lat="45.94379" lon="2.76395">
        <ele>652.8725586</ele>
        <time>2013-09-25T07:27:04Z</time>
      </trkpt>
      <trkpt lat="45.94379" lon="2.76394">
        <ele>650.949707</ele>
        <time>2013-09-25T07:27:25Z</time>
      </trkpt>
      <trkpt lat="45.94381" lon="2.76396">
        <ele>651.9111328</ele>
        <time>2013-09-25T07:28:01Z</time>
      </trkpt>
      <trkpt lat="45.94382" lon="2.76396">
        <ele>652.3918457</ele>
        <time>2013-09-25T07:28:02Z</time>
      </trkpt>
      <trkpt lat="45.94389" lon="2.76393">
        <ele>652.3918457</ele>
        <time>2013-09-25T07:28:18Z</time>
      </trkpt>
      <trkpt lat="45.94405" lon="2.76389">
        <ele>652.8725586</ele>
        <time>2013-09-25T07:28:38Z</time>
      </trkpt>
      <trkpt lat="45.94427" lon="2.76379">
        <ele>654.795166</ele>
        <time>2013-09-25T07:28:59Z</time>
      </trkpt>
      <trkpt lat="45.94448" lon="2.7637">
        <ele>654.3146973</ele>
        <time>2013-09-25T07:29:18Z</time>
      </trkpt>
      <trkpt lat="45.94469" lon="2.76364">
        <ele>653.8339844</ele>
        <time>2013-09-25T07:29:36Z</time>
      </trkpt>
      <trkpt lat="45.9448" lon="2.76385">
        <ele>654.3146973</ele>
        <time>2013-09-25T07:29:50Z</time>
      </trkpt>
      <trkpt lat="45.94486" lon="2.76401">
        <ele>654.795166</ele>
        <time>2013-09-25T07:30:00Z</time>
      </trkpt>
      <trkpt lat="45.94499" lon="2.76433">
        <ele>654.795166</ele>
        <time>2013-09-25T07:30:21Z</time>
      </trkpt>
      <trkpt lat="45.94517" lon="2.76459">
        <ele>654.3146973</ele>
        <time>2013-09-25T07:30:41Z</time>
      </trkpt>
      <trkpt lat="45.9454" lon="2.76489">
        <ele>652.8725586</ele>
        <time>2013-09-25T07:31:06Z</time>
      </trkpt>
      <trkpt lat="45.94561" lon="2.7652">
        <ele>650.4692383</ele>
        <time>2013-09-25T07:31:31Z</time>
      </trkpt>
      <trkpt lat="45.94582" lon="2.76538">
        <ele>648.5463867</ele>
        <time>2013-09-25T07:31:52Z</time>
      </trkpt>
      <trkpt lat="45.94598" lon="2.76546">
        <ele>647.5852051</ele>
        <time>2013-09-25T07:32:10Z</time>
      </trkpt>
      <trkpt lat="45.94624" lon="2.76556">
        <ele>646.1433105</ele>
        <time>2013-09-25T07:32:33Z</time>
      </trkpt>
      <trkpt lat="45.9465" lon="2.76564">
        <ele>644.2207031</ele>
        <time>2013-09-25T07:32:54Z</time>
      </trkpt>
      <trkpt lat="45.94677" lon="2.76575">
        <ele>643.2592773</ele>
        <time>2013-09-25T07:33:17Z</time>
      </trkpt>
      <trkpt lat="45.94698" lon="2.76584">
        <ele>643.2592773</ele>
        <time>2013-09-25T07:33:36Z</time>
      </trkpt>
      <trkpt lat="45.94728" lon="2.76596">
        <ele>642.7788086</ele>
        <time>2013-09-25T07:34:01Z</time>
      </trkpt>
      <trkpt lat="45.94758" lon="2.76608">
        <ele>641.8173828</ele>
        <time>2013-09-25T07:34:25Z</time>
      </trkpt>
      <trkpt lat="45.94777" lon="2.76617">
        <ele>641.3366699</ele>
        <time>2013-09-25T07:34:41Z</time>
      </trkpt>
      <trkpt lat="45.94811" lon="2.7663">
        <ele>638.4528809</ele>
        <time>2013-09-25T07:35:06Z</time>
      </trkpt>
      <trkpt lat="45.94844" lon="2.76644">
        <ele>636.0495605</ele>
        <time>2013-09-25T07:35:31Z</time>
      </trkpt>
      <trkpt lat="45.94862" lon="2.76651">
        <ele>632.2041016</ele>
        <time>2013-09-25T07:35:44Z</time>
      </trkpt>
      <trkpt lat="45.94892" lon="2.7666">
        <ele>630.762207</ele>
        <time>2013-09-25T07:36:07Z</time>
      </trkpt>
      <trkpt lat="45.94916" lon="2.76662">
        <ele>630.2814941</ele>
        <time>2013-09-25T07:36:26Z</time>
      </trkpt>
      <trkpt lat="45.94939" lon="2.76653">
        <ele>630.2814941</ele>
        <time>2013-09-25T07:36:45Z</time>
      </trkpt>
      <trkpt lat="45.9497" lon="2.76645">
        <ele>631.2429199</ele>
        <time>2013-09-25T07:37:07Z</time>
      </trkpt>
      <trkpt lat="45.94988" lon="2.76642">
        <ele>634.6074219</ele>
        <time>2013-09-25T07:37:21Z</time>
      </trkpt>
      <trkpt lat="45.95009" lon="2.76643">
        <ele>637.4914551</ele>
        <time>2013-09-25T07:37:37Z</time>
      </trkpt>
      <trkpt lat="45.95035" lon="2.76652">
        <ele>639.8947754</ele>
        <time>2013-09-25T07:37:58Z</time>
      </trkpt>
      <trkpt lat="45.95065" lon="2.76665">
        <ele>641.8173828</ele>
        <time>2013-09-25T07:38:20Z</time>
      </trkpt>
      <trkpt lat="45.95088" lon="2.76677">
        <ele>641.3366699</ele>
        <time>2013-09-25T07:38:38Z</time>
      </trkpt>
      <trkpt lat="45.95109" lon="2.76693">
        <ele>642.2980957</ele>
        <time>2013-09-25T07:38:55Z</time>
      </trkpt>
      <trkpt lat="45.95111" lon="2.767">
        <ele>642.7788086</ele>
        <time>2013-09-25T07:39:07Z</time>
      </trkpt>
      <trkpt lat="45.95111" lon="2.76701">
        <ele>642.7788086</ele>
        <time>2013-09-25T07:39:42Z</time>
      </trkpt>
      <trkpt lat="45.95114" lon="2.76705">
        <ele>642.7788086</ele>
        <time>2013-09-25T07:40:01Z</time>
      </trkpt>
      <trkpt lat="45.95114" lon="2.76709">
        <ele>643.2592773</ele>
        <time>2013-09-25T07:40:17Z</time>
      </trkpt>
      <trkpt lat="45.95116" lon="2.76709">
        <ele>643.2592773</ele>
        <time>2013-09-25T07:40:33Z</time>
      </trkpt>
      <trkpt lat="45.95114" lon="2.76712">
        <ele>643.2592773</ele>
        <time>2013-09-25T07:40:40Z</time>
      </trkpt>
      <trkpt lat="45.95113" lon="2.76741">
        <ele>643.2592773</ele>
        <time>2013-09-25T07:40:58Z</time>
      </trkpt>
      <trkpt lat="45.95111" lon="2.76758">
        <ele>643.2592773</ele>
        <time>2013-09-25T07:41:09Z</time>
      </trkpt>
      <trkpt lat="45.95098" lon="2.76776">
        <ele>643.2592773</ele>
        <time>2013-09-25T07:41:26Z</time>
      </trkpt>
      <trkpt lat="45.95086" lon="2.7679">
        <ele>642.7788086</ele>
        <time>2013-09-25T07:41:39Z</time>
      </trkpt>
      <trkpt lat="45.95068" lon="2.76808">
        <ele>642.2980957</ele>
        <time>2013-09-25T07:41:58Z</time>
      </trkpt>
      <trkpt lat="45.95053" lon="2.76837">
        <ele>639.8947754</ele>
        <time>2013-09-25T07:42:16Z</time>
      </trkpt>
      <trkpt lat="45.95041" lon="2.76877">
        <ele>638.4528809</ele>
        <time>2013-09-25T07:42:39Z</time>
      </trkpt>
      <trkpt lat="45.95021" lon="2.76907">
        <ele>637.0107422</ele>
        <time>2013-09-25T07:43:02Z</time>
      </trkpt>
      <trkpt lat="45.95008" lon="2.76928">
        <ele>635.5686035</ele>
        <time>2013-09-25T07:43:19Z</time>
      </trkpt>
      <trkpt lat="45.94991" lon="2.76954">
        <ele>633.6459961</ele>
        <time>2013-09-25T07:43:39Z</time>
      </trkpt>
      <trkpt lat="45.94973" lon="2.76979">
        <ele>631.2429199</ele>
        <time>2013-09-25T07:43:59Z</time>
      </trkpt>
      <trkpt lat="45.94955" lon="2.77006">
        <ele>628.3588867</ele>
        <time>2013-09-25T07:44:21Z</time>
      </trkpt>
      <trkpt lat="45.9494" lon="2.77028">
        <ele>626.9169922</ele>
        <time>2013-09-25T07:44:39Z</time>
      </trkpt>
      <trkpt lat="45.94922" lon="2.77058">
        <ele>624.5136719</ele>
        <time>2013-09-25T07:45:02Z</time>
      </trkpt>
      <trkpt lat="45.94916" lon="2.77073">
        <ele>623.5524902</ele>
        <time>2013-09-25T07:45:12Z</time>
      </trkpt>
      <trkpt lat="45.94925" lon="2.77107">
        <ele>621.6296387</ele>
        <time>2013-09-25T07:45:32Z</time>
      </trkpt>
      <trkpt lat="45.94934" lon="2.77125">
        <ele>620.668457</ele>
        <time>2013-09-25T07:45:45Z</time>
      </trkpt>
      <trkpt lat="45.94941" lon="2.77149">
        <ele>620.668457</ele>
        <time>2013-09-25T07:46:01Z</time>
      </trkpt>
      <trkpt lat="45.94941" lon="2.77154">
        <ele>621.1491699</ele>
        <time>2013-09-25T07:46:04Z</time>
      </trkpt>
      <trkpt lat="45.9494" lon="2.77161">
        <ele>620.668457</ele>
        <time>2013-09-25T07:46:09Z</time>
      </trkpt>
      <trkpt lat="45.94931" lon="2.77178">
        <ele>623.0717773</ele>
        <time>2013-09-25T07:46:25Z</time>
      </trkpt>
      <trkpt lat="45.9492" lon="2.77195">
        <ele>624.5136719</ele>
        <time>2013-09-25T07:46:41Z</time>
      </trkpt>
      <trkpt lat="45.94909" lon="2.77213">
        <ele>625.9555664</ele>
        <time>2013-09-25T07:46:58Z</time>
      </trkpt>
      <trkpt lat="45.949" lon="2.77236">
        <ele>626.9169922</ele>
        <time>2013-09-25T07:47:14Z</time>
      </trkpt>
      <trkpt lat="45.94899" lon="2.77242">
        <ele>626.4362793</ele>
        <time>2013-09-25T07:47:19Z</time>
      </trkpt>
      <trkpt lat="45.94908" lon="2.77259">
        <ele>629.8007813</ele>
        <time>2013-09-25T07:47:36Z</time>
      </trkpt>
      <trkpt lat="45.9492" lon="2.7727">
        <ele>632.2041016</ele>
        <time>2013-09-25T07:47:53Z</time>
      </trkpt>
      <trkpt lat="45.94932" lon="2.77279">
        <ele>635.0881348</ele>
        <time>2013-09-25T07:48:07Z</time>
      </trkpt>
      <trkpt lat="45.94949" lon="2.77287">
        <ele>636.5302734</ele>
        <time>2013-09-25T07:48:24Z</time>
      </trkpt>
      <trkpt lat="45.94964" lon="2.77283">
        <ele>637.0107422</ele>
        <time>2013-09-25T07:48:38Z</time>
      </trkpt>
      <trkpt lat="45.94968" lon="2.77283">
        <ele>637.0107422</ele>
        <time>2013-09-25T07:48:42Z</time>
      </trkpt>
      <trkpt lat="45.94984" lon="2.77276">
        <ele>638.4528809</ele>
        <time>2013-09-25T07:48:58Z</time>
      </trkpt>
      <trkpt lat="45.95002" lon="2.77276">
        <ele>639.4140625</ele>
        <time>2013-09-25T07:49:14Z</time>
      </trkpt>
      <trkpt lat="45.95016" lon="2.77277">
        <ele>639.4140625</ele>
        <time>2013-09-25T07:49:27Z</time>
      </trkpt>
      <trkpt lat="45.95027" lon="2.77281">
        <ele>639.8947754</ele>
        <time>2013-09-25T07:49:39Z</time>
      </trkpt>
      <trkpt lat="45.95041" lon="2.77298">
        <ele>639.8947754</ele>
        <time>2013-09-25T07:49:55Z</time>
      </trkpt>
      <trkpt lat="45.95046" lon="2.77306">
        <ele>639.8947754</ele>
        <time>2013-09-25T07:50:08Z</time>
      </trkpt>
      <trkpt lat="45.9506" lon="2.77331">
        <ele>638.4528809</ele>
        <time>2013-09-25T07:50:27Z</time>
      </trkpt>
      <trkpt lat="45.95078" lon="2.77348">
        <ele>637.4914551</ele>
        <time>2013-09-25T07:50:46Z</time>
      </trkpt>
      <trkpt lat="45.95099" lon="2.77372">
        <ele>634.126709</ele>
        <time>2013-09-25T07:51:08Z</time>
      </trkpt>
      <trkpt lat="45.95121" lon="2.77399">
        <ele>634.126709</ele>
        <time>2013-09-25T07:51:31Z</time>
      </trkpt>
      <trkpt lat="45.95139" lon="2.77412">
        <ele>635.0881348</ele>
        <time>2013-09-25T07:51:49Z</time>
      </trkpt>
      <trkpt lat="45.9514" lon="2.77412">
        <ele>634.6074219</ele>
        <time>2013-09-25T07:52:11Z</time>
      </trkpt>
      <trkpt lat="45.95142" lon="2.77412">
        <ele>635.0881348</ele>
        <time>2013-09-25T07:52:34Z</time>
      </trkpt>
      <trkpt lat="45.95146" lon="2.77415">
        <ele>634.6074219</ele>
        <time>2013-09-25T07:52:58Z</time>
      </trkpt>
      <trkpt lat="45.95142" lon="2.77413">
        <ele>634.6074219</ele>
        <time>2013-09-25T07:53:27Z</time>
      </trkpt>
      <trkpt lat="45.95142" lon="2.7741">
        <ele>635.0881348</ele>
        <time>2013-09-25T07:53:50Z</time>
      </trkpt>
      <trkpt lat="45.95162" lon="2.7741">
        <ele>634.6074219</ele>
        <time>2013-09-25T07:54:08Z</time>
      </trkpt>
      <trkpt lat="45.95183" lon="2.774">
        <ele>635.0881348</ele>
        <time>2013-09-25T07:54:25Z</time>
      </trkpt>
      <trkpt lat="45.95209" lon="2.77395">
        <ele>635.0881348</ele>
        <time>2013-09-25T07:54:45Z</time>
      </trkpt>
      <trkpt lat="45.95233" lon="2.77402">
        <ele>635.0881348</ele>
        <time>2013-09-25T07:55:06Z</time>
      </trkpt>
      <trkpt lat="45.95255" lon="2.77399">
        <ele>635.5686035</ele>
        <time>2013-09-25T07:55:23Z</time>
      </trkpt>
      <trkpt lat="45.9528" lon="2.77393">
        <ele>636.0495605</ele>
        <time>2013-09-25T07:55:42Z</time>
      </trkpt>
      <trkpt lat="45.95305" lon="2.77387">
        <ele>637.0107422</ele>
        <time>2013-09-25T07:56:02Z</time>
      </trkpt>
      <trkpt lat="45.9533" lon="2.7739">
        <ele>637.4914551</ele>
        <time>2013-09-25T07:56:22Z</time>
      </trkpt>
      <trkpt lat="45.95355" lon="2.77394">
        <ele>639.8947754</ele>
        <time>2013-09-25T07:56:44Z</time>
      </trkpt>
      <trkpt lat="45.95375" lon="2.77393">
        <ele>641.3366699</ele>
        <time>2013-09-25T07:57:03Z</time>
      </trkpt>
      <trkpt lat="45.95401" lon="2.77393">
        <ele>643.2592773</ele>
        <time>2013-09-25T07:57:26Z</time>
      </trkpt>
      <trkpt lat="45.95422" lon="2.77386">
        <ele>645.1818848</ele>
        <time>2013-09-25T07:57:44Z</time>
      </trkpt>
      <trkpt lat="45.95447" lon="2.77375">
        <ele>644.7011719</ele>
        <time>2013-09-25T07:58:05Z</time>
      </trkpt>
      <trkpt lat="45.95472" lon="2.77374">
        <ele>646.6240234</ele>
        <time>2013-09-25T07:58:26Z</time>
      </trkpt>
      <trkpt lat="45.95498" lon="2.7738">
        <ele>647.1044922</ele>
        <time>2013-09-25T07:58:46Z</time>
      </trkpt>
      <trkpt lat="45.95526" lon="2.7739">
        <ele>648.5463867</ele>
        <time>2013-09-25T07:59:08Z</time>
      </trkpt>
      <trkpt lat="45.95545" lon="2.77399">
        <ele>649.5078125</ele>
        <time>2013-09-25T07:59:25Z</time>
      </trkpt>
      <trkpt lat="45.95569" lon="2.77401">
        <ele>648.5463867</ele>
        <time>2013-09-25T07:59:47Z</time>
      </trkpt>
      <trkpt lat="45.9557" lon="2.774">
        <ele>648.065918</ele>
        <time>2013-09-25T08:00:12Z</time>
      </trkpt>
      <trkpt lat="45.9558" lon="2.7739">
        <ele>648.5463867</ele>
        <time>2013-09-25T08:00:26Z</time>
      </trkpt>
      <trkpt lat="45.95597" lon="2.77378">
        <ele>650.949707</ele>
        <time>2013-09-25T08:00:45Z</time>
      </trkpt>
      <trkpt lat="45.95602" lon="2.77369">
        <ele>650.949707</ele>
        <time>2013-09-25T08:00:57Z</time>
      </trkpt>
      <trkpt lat="45.95606" lon="2.77364">
        <ele>651.4304199</ele>
        <time>2013-09-25T08:01:02Z</time>
      </trkpt>
      <trkpt lat="45.95611" lon="2.77337">
        <ele>652.3918457</ele>
        <time>2013-09-25T08:01:20Z</time>
      </trkpt>
      <trkpt lat="45.95619" lon="2.77304">
        <ele>651.4304199</ele>
        <time>2013-09-25T08:01:41Z</time>
      </trkpt>
      <trkpt lat="45.95625" lon="2.7727">
        <ele>650.949707</ele>
        <time>2013-09-25T08:02:02Z</time>
      </trkpt>
      <trkpt lat="45.95629" lon="2.77244">
        <ele>650.949707</ele>
        <time>2013-09-25T08:02:20Z</time>
      </trkpt>
      <trkpt lat="45.9563" lon="2.77218">
        <ele>651.4304199</ele>
        <time>2013-09-25T08:02:37Z</time>
      </trkpt>
      <trkpt lat="45.95631" lon="2.77196">
        <ele>651.9111328</ele>
        <time>2013-09-25T08:02:52Z</time>
      </trkpt>
      <trkpt lat="45.95632" lon="2.77172">
        <ele>652.3918457</ele>
        <time>2013-09-25T08:03:09Z</time>
      </trkpt>
      <trkpt lat="45.9564" lon="2.77139">
        <ele>651.9111328</ele>
        <time>2013-09-25T08:03:32Z</time>
      </trkpt>
      <trkpt lat="45.9566" lon="2.7711">
        <ele>651.4304199</ele>
        <time>2013-09-25T08:03:57Z</time>
      </trkpt>
      <trkpt lat="45.95673" lon="2.77082">
        <ele>651.4304199</ele>
        <time>2013-09-25T08:04:19Z</time>
      </trkpt>
      <trkpt lat="45.95673" lon="2.77078">
        <ele>651.9111328</ele>
        <time>2013-09-25T08:04:22Z</time>
      </trkpt>
      <trkpt lat="45.95668" lon="2.77043">
        <ele>651.9111328</ele>
        <time>2013-09-25T08:04:44Z</time>
      </trkpt>
      <trkpt lat="45.95666" lon="2.77036">
        <ele>651.9111328</ele>
        <time>2013-09-25T08:04:48Z</time>
      </trkpt>
      <trkpt lat="45.95661" lon="2.77011">
        <ele>651.9111328</ele>
        <time>2013-09-25T08:05:04Z</time>
      </trkpt>
      <trkpt lat="45.95661" lon="2.77001">
        <ele>651.9111328</ele>
        <time>2013-09-25T08:05:10Z</time>
      </trkpt>
      <trkpt lat="45.95672" lon="2.76976">
        <ele>652.8725586</ele>
        <time>2013-09-25T08:05:30Z</time>
      </trkpt>
      <trkpt lat="45.95684" lon="2.76964">
        <ele>654.3146973</ele>
        <time>2013-09-25T08:05:44Z</time>
      </trkpt>
      <trkpt lat="45.95697" lon="2.76951">
        <ele>655.7565918</ele>
        <time>2013-09-25T08:06:01Z</time>
      </trkpt>
      <trkpt lat="45.95704" lon="2.76931">
        <ele>657.1984863</ele>
        <time>2013-09-25T08:06:18Z</time>
      </trkpt>
      <trkpt lat="45.95705" lon="2.76911">
        <ele>658.6403809</ele>
        <time>2013-09-25T08:06:33Z</time>
      </trkpt>
      <trkpt lat="45.95705" lon="2.76902">
        <ele>658.6403809</ele>
        <time>2013-09-25T08:06:40Z</time>
      </trkpt>
      <trkpt lat="45.95708" lon="2.76869">
        <ele>659.1210938</ele>
        <time>2013-09-25T08:07:01Z</time>
      </trkpt>
      <trkpt lat="45.95709" lon="2.76849">
        <ele>659.6018066</ele>
        <time>2013-09-25T08:07:19Z</time>
      </trkpt>
      <trkpt lat="45.9571" lon="2.76844">
        <ele>659.1210938</ele>
        <time>2013-09-25T08:07:36Z</time>
      </trkpt>
      <trkpt lat="45.95711" lon="2.76848">
        <ele>658.6403809</ele>
        <time>2013-09-25T08:08:02Z</time>
      </trkpt>
      <trkpt lat="45.95723" lon="2.76852">
        <ele>659.6018066</ele>
        <time>2013-09-25T08:08:18Z</time>
      </trkpt>
      <trkpt lat="45.95723" lon="2.76853">
        <ele>659.6018066</ele>
        <time>2013-09-25T08:08:39Z</time>
      </trkpt>
      <trkpt lat="45.95721" lon="2.76855">
        <ele>661.0437012</ele>
        <time>2013-09-25T08:09:16Z</time>
      </trkpt>
      <trkpt lat="45.95724" lon="2.76854">
        <ele>661.0437012</ele>
        <time>2013-09-25T08:10:03Z</time>
      </trkpt>
      <trkpt lat="45.95726" lon="2.76851">
        <ele>661.0437012</ele>
        <time>2013-09-25T08:10:33Z</time>
      </trkpt>
      <trkpt lat="45.9573" lon="2.76856">
        <ele>661.0437012</ele>
        <time>2013-09-25T08:10:59Z</time>
      </trkpt>
      <trkpt lat="45.95738" lon="2.76861">
        <ele>661.5244141</ele>
        <time>2013-09-25T08:11:10Z</time>
      </trkpt>
      <trkpt lat="45.95759" lon="2.76869">
        <ele>662.005127</ele>
        <time>2013-09-25T08:11:29Z</time>
      </trkpt>
      <trkpt lat="45.95766" lon="2.76871">
        <ele>662.005127</ele>
        <time>2013-09-25T08:11:42Z</time>
      </trkpt>
      <trkpt lat="45.9578" lon="2.76866">
        <ele>663.4470215</ele>
        <time>2013-09-25T08:11:59Z</time>
      </trkpt>
      <trkpt lat="45.9578" lon="2.76863">
        <ele>663.9274902</ele>
        <time>2013-09-25T08:12:01Z</time>
      </trkpt>
      <trkpt lat="45.95783" lon="2.76854">
        <ele>664.4082031</ele>
        <time>2013-09-25T08:12:08Z</time>
      </trkpt>
      <trkpt lat="45.95799" lon="2.76834">
        <ele>664.888916</ele>
        <time>2013-09-25T08:12:27Z</time>
      </trkpt>
      <trkpt lat="45.95799" lon="2.76808">
        <ele>664.888916</ele>
        <time>2013-09-25T08:12:44Z</time>
      </trkpt>
      <trkpt lat="45.95793" lon="2.76774">
        <ele>664.4082031</ele>
        <time>2013-09-25T08:13:06Z</time>
      </trkpt>
      <trkpt lat="45.95786" lon="2.76735">
        <ele>664.4082031</ele>
        <time>2013-09-25T08:13:30Z</time>
      </trkpt>
      <trkpt lat="45.95779" lon="2.76696">
        <ele>664.4082031</ele>
        <time>2013-09-25T08:13:53Z</time>
      </trkpt>
      <trkpt lat="45.95773" lon="2.76668">
        <ele>663.9274902</ele>
        <time>2013-09-25T08:14:10Z</time>
      </trkpt>
      <trkpt lat="45.9577" lon="2.76652">
        <ele>663.4470215</ele>
        <time>2013-09-25T08:14:30Z</time>
      </trkpt>
      <trkpt lat="45.95771" lon="2.76648">
        <ele>663.9274902</ele>
        <time>2013-09-25T08:14:51Z</time>
      </trkpt>
      <trkpt lat="45.9577" lon="2.76634">
        <ele>663.4470215</ele>
        <time>2013-09-25T08:15:01Z</time>
      </trkpt>
      <trkpt lat="45.95778" lon="2.76612">
        <ele>661.5244141</ele>
        <time>2013-09-25T08:15:18Z</time>
      </trkpt>
      <trkpt lat="45.95795" lon="2.76584">
        <ele>660.5629883</ele>
        <time>2013-09-25T08:15:42Z</time>
      </trkpt>
      <trkpt lat="45.95806" lon="2.76562">
        <ele>657.6791992</ele>
        <time>2013-09-25T08:15:59Z</time>
      </trkpt>
      <trkpt lat="45.95816" lon="2.76545">
        <ele>654.3146973</ele>
        <time>2013-09-25T08:16:15Z</time>
      </trkpt>
      <trkpt lat="45.9583" lon="2.76533">
        <ele>652.8725586</ele>
        <time>2013-09-25T08:16:30Z</time>
      </trkpt>
      <trkpt lat="45.95837" lon="2.76526">
        <ele>651.4304199</ele>
        <time>2013-09-25T08:16:38Z</time>
      </trkpt>
      <trkpt lat="45.95846" lon="2.76515">
        <ele>648.5463867</ele>
        <time>2013-09-25T08:16:49Z</time>
      </trkpt>
      <trkpt lat="45.95854" lon="2.76497">
        <ele>646.6240234</ele>
        <time>2013-09-25T08:17:05Z</time>
      </trkpt>
      <trkpt lat="45.95856" lon="2.76494">
        <ele>646.1433105</ele>
        <time>2013-09-25T08:17:08Z</time>
      </trkpt>
      <trkpt lat="45.9586" lon="2.76487">
        <ele>645.1818848</ele>
        <time>2013-09-25T08:17:14Z</time>
      </trkpt>
      <trkpt lat="45.95868" lon="2.76472">
        <ele>643.7399902</ele>
        <time>2013-09-25T08:17:27Z</time>
      </trkpt>
      <trkpt lat="45.95876" lon="2.76456">
        <ele>640.3754883</ele>
        <time>2013-09-25T08:17:40Z</time>
      </trkpt>
      <trkpt lat="45.95883" lon="2.76441">
        <ele>637.4914551</ele>
        <time>2013-09-25T08:17:52Z</time>
      </trkpt>
      <trkpt lat="45.95893" lon="2.76421">
        <ele>636.0495605</ele>
        <time>2013-09-25T08:18:10Z</time>
      </trkpt>
      <trkpt lat="45.959" lon="2.76412">
        <ele>636.0495605</ele>
        <time>2013-09-25T08:18:25Z</time>
      </trkpt>
      <trkpt lat="45.95909" lon="2.76413">
        <ele>635.5686035</ele>
        <time>2013-09-25T08:18:34Z</time>
      </trkpt>
      <trkpt lat="45.95929" lon="2.76414">
        <ele>635.0881348</ele>
        <time>2013-09-25T08:18:52Z</time>
      </trkpt>
      <trkpt lat="45.95951" lon="2.76415">
        <ele>635.0881348</ele>
        <time>2013-09-25T08:19:11Z</time>
      </trkpt>
      <trkpt lat="45.95973" lon="2.76416">
        <ele>634.6074219</ele>
        <time>2013-09-25T08:19:29Z</time>
      </trkpt>
      <trkpt lat="45.95991" lon="2.76414">
        <ele>633.6459961</ele>
        <time>2013-09-25T08:19:45Z</time>
      </trkpt>
      <trkpt lat="45.96002" lon="2.76413">
        <ele>632.2041016</ele>
        <time>2013-09-25T08:19:56Z</time>
      </trkpt>
      <trkpt lat="45.96017" lon="2.76412">
        <ele>631.2429199</ele>
        <time>2013-09-25T08:20:10Z</time>
      </trkpt>
      <trkpt lat="45.96029" lon="2.76411">
        <ele>630.2814941</ele>
        <time>2013-09-25T08:20:22Z</time>
      </trkpt>
      <trkpt lat="45.96044" lon="2.76411">
        <ele>629.8007813</ele>
        <time>2013-09-25T08:20:37Z</time>
      </trkpt>
      <trkpt lat="45.9606" lon="2.76412">
        <ele>630.2814941</ele>
        <time>2013-09-25T08:20:49Z</time>
      </trkpt>
      <trkpt lat="45.96072" lon="2.76416">
        <ele>629.8007813</ele>
        <time>2013-09-25T08:20:56Z</time>
      </trkpt>
      <trkpt lat="45.96089" lon="2.76421">
        <ele>630.2814941</ele>
        <time>2013-09-25T08:21:12Z</time>
      </trkpt>
      <trkpt lat="45.96105" lon="2.76425">
        <ele>629.8007813</ele>
        <time>2013-09-25T08:21:24Z</time>
      </trkpt>
      <trkpt lat="45.9612" lon="2.76432">
        <ele>629.8007813</ele>
        <time>2013-09-25T08:21:42Z</time>
      </trkpt>
      <trkpt lat="45.9612" lon="2.76432">
        <ele>630.2814941</ele>
        <time>2013-09-25T08:21:43Z</time>
      </trkpt>
      <trkpt lat="45.96138" lon="2.76436">
        <ele>629.8007813</ele>
        <time>2013-09-25T08:21:55Z</time>
      </trkpt>
      <trkpt lat="45.96156" lon="2.76438">
        <ele>629.3200684</ele>
        <time>2013-09-25T08:22:11Z</time>
      </trkpt>
      <trkpt lat="45.96165" lon="2.76436">
        <ele>627.8781738</ele>
        <time>2013-09-25T08:22:21Z</time>
      </trkpt>
      <trkpt lat="45.96171" lon="2.76436">
        <ele>627.3977051</ele>
        <time>2013-09-25T08:22:25Z</time>
      </trkpt>
      <trkpt lat="45.96183" lon="2.76435">
        <ele>627.3977051</ele>
        <time>2013-09-25T08:22:35Z</time>
      </trkpt>
      <trkpt lat="45.96195" lon="2.76433">
        <ele>627.8781738</ele>
        <time>2013-09-25T08:22:46Z</time>
      </trkpt>
      <trkpt lat="45.96212" lon="2.76425">
        <ele>627.3977051</ele>
        <time>2013-09-25T08:22:59Z</time>
      </trkpt>
      <trkpt lat="45.96231" lon="2.76414">
        <ele>625.4748535</ele>
        <time>2013-09-25T08:23:16Z</time>
      </trkpt>
      <trkpt lat="45.96237" lon="2.76402">
        <ele>622.5910645</ele>
        <time>2013-09-25T08:23:26Z</time>
      </trkpt>
      <trkpt lat="45.96248" lon="2.76382">
        <ele>621.6296387</ele>
        <time>2013-09-25T08:23:42Z</time>
      </trkpt>
      <trkpt lat="45.96261" lon="2.76362">
        <ele>620.668457</ele>
        <time>2013-09-25T08:23:55Z</time>
      </trkpt>
      <trkpt lat="45.96269" lon="2.76354">
        <ele>619.2263184</ele>
        <time>2013-09-25T08:24:07Z</time>
      </trkpt>
      <trkpt lat="45.96291" lon="2.76352">
        <ele>618.2648926</ele>
        <time>2013-09-25T08:24:22Z</time>
      </trkpt>
      <trkpt lat="45.96314" lon="2.76346">
        <ele>617.7841797</ele>
        <time>2013-09-25T08:24:40Z</time>
      </trkpt>
      <trkpt lat="45.96336" lon="2.76335">
        <ele>618.2648926</ele>
        <time>2013-09-25T08:24:59Z</time>
      </trkpt>
      <trkpt lat="45.96349" lon="2.76329">
        <ele>618.7456055</ele>
        <time>2013-09-25T08:25:14Z</time>
      </trkpt>
      <trkpt lat="45.96367" lon="2.76328">
        <ele>617.7841797</ele>
        <time>2013-09-25T08:25:30Z</time>
      </trkpt>
      <trkpt lat="45.96384" lon="2.7633">
        <ele>617.7841797</ele>
        <time>2013-09-25T08:25:47Z</time>
      </trkpt>
      <trkpt lat="45.96405" lon="2.76336">
        <ele>619.2263184</ele>
        <time>2013-09-25T08:26:03Z</time>
      </trkpt>
      <trkpt lat="45.96412" lon="2.76338">
        <ele>620.1877441</ele>
        <time>2013-09-25T08:26:12Z</time>
      </trkpt>
      <trkpt lat="45.96433" lon="2.7634">
        <ele>621.6296387</ele>
        <time>2013-09-25T08:26:28Z</time>
      </trkpt>
      <trkpt lat="45.96452" lon="2.7634">
        <ele>621.6296387</ele>
        <time>2013-09-25T08:26:46Z</time>
      </trkpt>
      <trkpt lat="45.96455" lon="2.76341">
        <ele>621.6296387</ele>
        <time>2013-09-25T08:26:48Z</time>
      </trkpt>
      <trkpt lat="45.96459" lon="2.7634">
        <ele>621.6296387</ele>
        <time>2013-09-25T08:26:52Z</time>
      </trkpt>
      <trkpt lat="45.96474" lon="2.7634">
        <ele>620.668457</ele>
        <time>2013-09-25T08:27:06Z</time>
      </trkpt>
      <trkpt lat="45.96491" lon="2.76338">
        <ele>619.2263184</ele>
        <time>2013-09-25T08:27:20Z</time>
      </trkpt>
      <trkpt lat="45.96501" lon="2.76336">
        <ele>618.2648926</ele>
        <time>2013-09-25T08:27:27Z</time>
      </trkpt>
      <trkpt lat="45.96513" lon="2.7633">
        <ele>617.7841797</ele>
        <time>2013-09-25T08:27:39Z</time>
      </trkpt>
      <trkpt lat="45.96528" lon="2.76322">
        <ele>617.3037109</ele>
        <time>2013-09-25T08:27:52Z</time>
      </trkpt>
      <trkpt lat="45.96532" lon="2.76321">
        <ele>616.822998</ele>
        <time>2013-09-25T08:27:55Z</time>
      </trkpt>
      <trkpt lat="45.96551" lon="2.76315">
        <ele>616.3422852</ele>
        <time>2013-09-25T08:28:08Z</time>
      </trkpt>
      <trkpt lat="45.96563" lon="2.76301">
        <ele>615.8618164</ele>
        <time>2013-09-25T08:28:24Z</time>
      </trkpt>
      <trkpt lat="45.96575" lon="2.76289">
        <ele>615.8618164</ele>
        <time>2013-09-25T08:28:37Z</time>
      </trkpt>
      <trkpt lat="45.96589" lon="2.7628">
        <ele>614.4196777</ele>
        <time>2013-09-25T08:28:50Z</time>
      </trkpt>
      <trkpt lat="45.96603" lon="2.76263">
        <ele>612.9777832</ele>
        <time>2013-09-25T08:29:06Z</time>
      </trkpt>
      <trkpt lat="45.96613" lon="2.76246">
        <ele>611.5358887</ele>
        <time>2013-09-25T08:29:19Z</time>
      </trkpt>
      <trkpt lat="45.96622" lon="2.76226">
        <ele>608.6518555</ele>
        <time>2013-09-25T08:29:35Z</time>
      </trkpt>
      <trkpt lat="45.96623" lon="2.76223">
        <ele>608.1713867</ele>
        <time>2013-09-25T08:29:37Z</time>
      </trkpt>
      <trkpt lat="45.96628" lon="2.76208">
        <ele>606.729248</ele>
        <time>2013-09-25T08:29:48Z</time>
      </trkpt>
      <trkpt lat="45.96638" lon="2.762">
        <ele>606.2485352</ele>
        <time>2013-09-25T08:29:58Z</time>
      </trkpt>
      <trkpt lat="45.96651" lon="2.76191">
        <ele>605.2873535</ele>
        <time>2013-09-25T08:30:09Z</time>
      </trkpt>
      <trkpt lat="45.96659" lon="2.76188">
        <ele>604.8066406</ele>
        <time>2013-09-25T08:30:16Z</time>
      </trkpt>
      <trkpt lat="45.96674" lon="2.76186">
        <ele>604.3261719</ele>
        <time>2013-09-25T08:30:30Z</time>
      </trkpt>
      <trkpt lat="45.96691" lon="2.76176">
        <ele>606.2485352</ele>
        <time>2013-09-25T08:30:51Z</time>
      </trkpt>
      <trkpt lat="45.96715" lon="2.76165">
        <ele>607.6906738</ele>
        <time>2013-09-25T08:31:12Z</time>
      </trkpt>
      <trkpt lat="45.96729" lon="2.76155">
        <ele>609.1325684</ele>
        <time>2013-09-25T08:31:26Z</time>
      </trkpt>
      <trkpt lat="45.96741" lon="2.7614">
        <ele>611.0551758</ele>
        <time>2013-09-25T08:31:40Z</time>
      </trkpt>
      <trkpt lat="45.96748" lon="2.76128">
        <ele>612.0166016</ele>
        <time>2013-09-25T08:31:52Z</time>
      </trkpt>
      <trkpt lat="45.96756" lon="2.76114">
        <ele>612.0166016</ele>
        <time>2013-09-25T08:32:04Z</time>
      </trkpt>
      <trkpt lat="45.96764" lon="2.761">
        <ele>610.5744629</ele>
        <time>2013-09-25T08:32:16Z</time>
      </trkpt>
      <trkpt lat="45.96774" lon="2.76092">
        <ele>609.1325684</ele>
        <time>2013-09-25T08:32:28Z</time>
      </trkpt>
      <trkpt lat="45.96786" lon="2.76088">
        <ele>607.6906738</ele>
        <time>2013-09-25T08:32:40Z</time>
      </trkpt>
      <trkpt lat="45.96799" lon="2.76085">
        <ele>605.7680664</ele>
        <time>2013-09-25T08:32:57Z</time>
      </trkpt>
      <trkpt lat="45.96805" lon="2.76083">
        <ele>604.8066406</ele>
        <time>2013-09-25T08:33:03Z</time>
      </trkpt>
      <trkpt lat="45.96818" lon="2.76081">
        <ele>602.4030762</ele>
        <time>2013-09-25T08:33:13Z</time>
      </trkpt>
      <trkpt lat="45.96832" lon="2.76074">
        <ele>601.4418945</ele>
        <time>2013-09-25T08:33:23Z</time>
      </trkpt>
      <trkpt lat="45.96849" lon="2.76075">
        <ele>599.0385742</ele>
        <time>2013-09-25T08:33:37Z</time>
      </trkpt>
      <trkpt lat="45.96862" lon="2.76075">
        <ele>597.5966797</ele>
        <time>2013-09-25T08:33:51Z</time>
      </trkpt>
      <trkpt lat="45.96872" lon="2.76079">
        <ele>595.1933594</ele>
        <time>2013-09-25T08:34:02Z</time>
      </trkpt>
      <trkpt lat="45.96887" lon="2.7608">
        <ele>594.7126465</ele>
        <time>2013-09-25T08:34:15Z</time>
      </trkpt>
      <trkpt lat="45.96902" lon="2.76083">
        <ele>594.7126465</ele>
        <time>2013-09-25T08:34:31Z</time>
      </trkpt>
      <trkpt lat="45.96913" lon="2.76087">
        <ele>594.7126465</ele>
        <time>2013-09-25T08:34:44Z</time>
      </trkpt>
      <trkpt lat="45.96929" lon="2.76084">
        <ele>594.7126465</ele>
        <time>2013-09-25T08:34:57Z</time>
      </trkpt>
      <trkpt lat="45.96937" lon="2.76079">
        <ele>595.1933594</ele>
        <time>2013-09-25T08:35:04Z</time>
      </trkpt>
      <trkpt lat="45.96947" lon="2.76068">
        <ele>595.1933594</ele>
        <time>2013-09-25T08:35:13Z</time>
      </trkpt>
      <trkpt lat="45.96958" lon="2.76058">
        <ele>595.6740723</ele>
        <time>2013-09-25T08:35:29Z</time>
      </trkpt>
      <trkpt lat="45.96965" lon="2.76052">
        <ele>596.1547852</ele>
        <time>2013-09-25T08:35:39Z</time>
      </trkpt>
      <trkpt lat="45.96979" lon="2.76051">
        <ele>596.1547852</ele>
        <time>2013-09-25T08:35:55Z</time>
      </trkpt>
      <trkpt lat="45.96992" lon="2.76044">
        <ele>596.635498</ele>
        <time>2013-09-25T08:36:07Z</time>
      </trkpt>
      <trkpt lat="45.9701" lon="2.76032">
        <ele>597.5966797</ele>
        <time>2013-09-25T08:36:34Z</time>
      </trkpt>
      <trkpt lat="45.97011" lon="2.76032">
        <ele>598.0773926</ele>
        <time>2013-09-25T08:36:35Z</time>
      </trkpt>
      <trkpt lat="45.97027" lon="2.76028">
        <ele>598.5578613</ele>
        <time>2013-09-25T08:36:53Z</time>
      </trkpt>
      <trkpt lat="45.97042" lon="2.76042">
        <ele>601.4418945</ele>
        <time>2013-09-25T08:37:08Z</time>
      </trkpt>
      <trkpt lat="45.97043" lon="2.76045">
        <ele>601.4418945</ele>
        <time>2013-09-25T08:37:10Z</time>
      </trkpt>
      <trkpt lat="45.97066" lon="2.76057">
        <ele>602.4030762</ele>
        <time>2013-09-25T08:37:27Z</time>
      </trkpt>
      <trkpt lat="45.97077" lon="2.76038">
        <ele>610.5744629</ele>
        <time>2013-09-25T08:42:52Z</time>
      </trkpt>
      <trkpt lat="45.9708" lon="2.7604">
        <ele>611.0551758</ele>
        <time>2013-09-25T08:42:59Z</time>
      </trkpt>
      <trkpt lat="45.97096" lon="2.7604">
        <ele>611.0551758</ele>
        <time>2013-09-25T08:43:12Z</time>
      </trkpt>
      <trkpt lat="45.97106" lon="2.76031">
        <ele>612.0166016</ele>
        <time>2013-09-25T08:43:25Z</time>
      </trkpt>
      <trkpt lat="45.97118" lon="2.76025">
        <ele>613.9389648</ele>
        <time>2013-09-25T08:43:37Z</time>
      </trkpt>
      <trkpt lat="45.97127" lon="2.76017">
        <ele>614.9003906</ele>
        <time>2013-09-25T08:43:49Z</time>
      </trkpt>
      <trkpt lat="45.97137" lon="2.76011">
        <ele>616.822998</ele>
        <time>2013-09-25T08:44:01Z</time>
      </trkpt>
      <trkpt lat="45.97147" lon="2.76006">
        <ele>617.7841797</ele>
        <time>2013-09-25T08:44:13Z</time>
      </trkpt>
      <trkpt lat="45.97155" lon="2.75994">
        <ele>619.2263184</ele>
        <time>2013-09-25T08:44:29Z</time>
      </trkpt>
      <trkpt lat="45.97171" lon="2.75973">
        <ele>622.1103516</ele>
        <time>2013-09-25T08:44:58Z</time>
      </trkpt>
      <trkpt lat="45.97176" lon="2.75963">
        <ele>623.5524902</ele>
        <time>2013-09-25T08:45:10Z</time>
      </trkpt>
      <trkpt lat="45.97187" lon="2.75958">
        <ele>624.9943848</ele>
        <time>2013-09-25T08:45:21Z</time>
      </trkpt>
      <trkpt lat="45.97199" lon="2.75955">
        <ele>627.8781738</ele>
        <time>2013-09-25T08:45:37Z</time>
      </trkpt>
      <trkpt lat="45.97205" lon="2.75961">
        <ele>629.3200684</ele>
        <time>2013-09-25T08:45:49Z</time>
      </trkpt>
      <trkpt lat="45.97224" lon="2.75963">
        <ele>630.2814941</ele>
        <time>2013-09-25T08:46:04Z</time>
      </trkpt>
      <trkpt lat="45.97232" lon="2.75965">
        <ele>632.2041016</ele>
        <time>2013-09-25T08:46:13Z</time>
      </trkpt>
      <trkpt lat="45.97244" lon="2.75963">
        <ele>632.6848145</ele>
        <time>2013-09-25T08:46:23Z</time>
      </trkpt>
      <trkpt lat="45.97256" lon="2.75958">
        <ele>634.126709</ele>
        <time>2013-09-25T08:46:34Z</time>
      </trkpt>
      <trkpt lat="45.97268" lon="2.75956">
        <ele>634.6074219</ele>
        <time>2013-09-25T08:46:50Z</time>
      </trkpt>
      <trkpt lat="45.97292" lon="2.7595">
        <ele>633.6459961</ele>
        <time>2013-09-25T08:47:05Z</time>
      </trkpt>
      <trkpt lat="45.97307" lon="2.75948">
        <ele>630.2814941</ele>
        <time>2013-09-25T08:47:20Z</time>
      </trkpt>
      <trkpt lat="45.97327" lon="2.75942">
        <ele>627.8781738</ele>
        <time>2013-09-25T08:47:39Z</time>
      </trkpt>
      <trkpt lat="45.9735" lon="2.7594">
        <ele>624.5136719</ele>
        <time>2013-09-25T08:47:58Z</time>
      </trkpt>
      <trkpt lat="45.9736" lon="2.75938">
        <ele>623.0717773</ele>
        <time>2013-09-25T08:48:09Z</time>
      </trkpt>
      <trkpt lat="45.97377" lon="2.75936">
        <ele>621.6296387</ele>
        <time>2013-09-25T08:48:22Z</time>
      </trkpt>
      <trkpt lat="45.97404" lon="2.75932">
        <ele>620.668457</ele>
        <time>2013-09-25T08:48:40Z</time>
      </trkpt>
      <trkpt lat="45.97421" lon="2.75924">
        <ele>619.2263184</ele>
        <time>2013-09-25T08:48:56Z</time>
      </trkpt>
      <trkpt lat="45.97435" lon="2.75921">
        <ele>617.3037109</ele>
        <time>2013-09-25T08:49:08Z</time>
      </trkpt>
      <trkpt lat="45.97453" lon="2.75911">
        <ele>614.4196777</ele>
        <time>2013-09-25T08:49:26Z</time>
      </trkpt>
      <trkpt lat="45.97463" lon="2.75901">
        <ele>612.4970703</ele>
        <time>2013-09-25T08:49:39Z</time>
      </trkpt>
      <trkpt lat="45.97465" lon="2.75899">
        <ele>612.0166016</ele>
        <time>2013-09-25T08:49:41Z</time>
      </trkpt>
      <trkpt lat="45.97483" lon="2.75892">
        <ele>610.09375</ele>
        <time>2013-09-25T08:49:59Z</time>
      </trkpt>
      <trkpt lat="45.97492" lon="2.75888">
        <ele>608.6518555</ele>
        <time>2013-09-25T08:52:54Z</time>
      </trkpt>
      <trkpt lat="45.97524" lon="2.75881">
        <ele>608.6518555</ele>
        <time>2013-09-25T08:53:14Z</time>
      </trkpt>
      <trkpt lat="45.975" lon="2.75862">
        <ele>611.5358887</ele>
        <time>2013-09-25T08:55:35Z</time>
      </trkpt>
      <trkpt lat="45.97498" lon="2.75854">
        <ele>614.9003906</ele>
        <time>2013-09-25T08:55:54Z</time>
      </trkpt>
      <trkpt lat="45.97492" lon="2.75848">
        <ele>618.7456055</ele>
        <time>2013-09-25T08:56:11Z</time>
      </trkpt>
      <trkpt lat="45.97491" lon="2.75845">
        <ele>618.7456055</ele>
        <time>2013-09-25T08:56:18Z</time>
      </trkpt>
      <trkpt lat="45.9748" lon="2.75839">
        <ele>622.5910645</ele>
        <time>2013-09-25T08:56:30Z</time>
      </trkpt>
      <trkpt lat="45.97475" lon="2.75836">
        <ele>624.9943848</ele>
        <time>2013-09-25T08:56:46Z</time>
      </trkpt>
      <trkpt lat="45.97476" lon="2.75837">
        <ele>625.4748535</ele>
        <time>2013-09-25T08:56:47Z</time>
      </trkpt>
      <trkpt lat="45.97466" lon="2.75826">
        <ele>626.4362793</ele>
        <time>2013-09-25T08:57:01Z</time>
      </trkpt>
      <trkpt lat="45.97457" lon="2.7582">
        <ele>627.8781738</ele>
        <time>2013-09-25T08:57:19Z</time>
      </trkpt>
      <trkpt lat="45.97442" lon="2.7582">
        <ele>629.8007813</ele>
        <time>2013-09-25T08:57:36Z</time>
      </trkpt>
      <trkpt lat="45.97433" lon="2.75814">
        <ele>632.6848145</ele>
        <time>2013-09-25T08:57:51Z</time>
      </trkpt>
      <trkpt lat="45.97423" lon="2.75807">
        <ele>632.6848145</ele>
        <time>2013-09-25T08:58:02Z</time>
      </trkpt>
      <trkpt lat="45.97406" lon="2.758">
        <ele>633.6459961</ele>
        <time>2013-09-25T08:58:15Z</time>
      </trkpt>
      <trkpt lat="45.97401" lon="2.75801">
        <ele>635.0881348</ele>
        <time>2013-09-25T08:58:26Z</time>
      </trkpt>
      <trkpt lat="45.97394" lon="2.75803">
        <ele>634.126709</ele>
        <time>2013-09-25T08:58:36Z</time>
      </trkpt>
      <trkpt lat="45.97391" lon="2.758">
        <ele>634.6074219</ele>
        <time>2013-09-25T08:58:41Z</time>
      </trkpt>
      <trkpt lat="45.97362" lon="2.75783">
        <ele>634.6074219</ele>
        <time>2013-09-25T08:58:59Z</time>
      </trkpt>
      <trkpt lat="45.9733" lon="2.75756">
        <ele>637.4914551</ele>
        <time>2013-09-25T08:59:32Z</time>
      </trkpt>
      <trkpt lat="45.97314" lon="2.75743">
        <ele>640.3754883</ele>
        <time>2013-09-25T08:59:49Z</time>
      </trkpt>
      <trkpt lat="45.97261" lon="2.75716">
        <ele>644.2207031</ele>
        <time>2013-09-25T09:00:27Z</time>
      </trkpt>
      <trkpt lat="45.97243" lon="2.75698">
        <ele>647.1044922</ele>
        <time>2013-09-25T09:00:46Z</time>
      </trkpt>
      <trkpt lat="45.97233" lon="2.75682">
        <ele>649.5078125</ele>
        <time>2013-09-25T09:01:02Z</time>
      </trkpt>
      <trkpt lat="45.97235" lon="2.75676">
        <ele>649.9885254</ele>
        <time>2013-09-25T09:01:16Z</time>
      </trkpt>
      <trkpt lat="45.97232" lon="2.75667">
        <ele>650.949707</ele>
        <time>2013-09-25T09:01:26Z</time>
      </trkpt>
      <trkpt lat="45.97231" lon="2.75658">
        <ele>652.3918457</ele>
        <time>2013-09-25T09:01:39Z</time>
      </trkpt>
      <trkpt lat="45.97229" lon="2.75637">
        <ele>653.8339844</ele>
        <time>2013-09-25T09:01:52Z</time>
      </trkpt>
      <trkpt lat="45.97225" lon="2.75622">
        <ele>656.7177734</ele>
        <time>2013-09-25T09:02:05Z</time>
      </trkpt>
      <trkpt lat="45.97226" lon="2.75613">
        <ele>659.1210938</ele>
        <time>2013-09-25T09:02:13Z</time>
      </trkpt>
      <trkpt lat="45.97226" lon="2.75595">
        <ele>662.4855957</ele>
        <time>2013-09-25T09:02:24Z</time>
      </trkpt>
      <trkpt lat="45.97219" lon="2.7559">
        <ele>663.4470215</ele>
        <time>2013-09-25T09:02:29Z</time>
      </trkpt>
      <trkpt lat="45.97204" lon="2.7558">
        <ele>665.8503418</ele>
        <time>2013-09-25T09:02:43Z</time>
      </trkpt>
      <trkpt lat="45.97192" lon="2.75551">
        <ele>668.734375</ele>
        <time>2013-09-25T09:03:07Z</time>
      </trkpt>
      <trkpt lat="45.97182" lon="2.75547">
        <ele>669.2150879</ele>
        <time>2013-09-25T09:03:26Z</time>
      </trkpt>
      <trkpt lat="45.97178" lon="2.75541">
        <ele>670.1762695</ele>
        <time>2013-09-25T09:03:38Z</time>
      </trkpt>
      <trkpt lat="45.97169" lon="2.75536">
        <ele>670.1762695</ele>
        <time>2013-09-25T09:03:53Z</time>
      </trkpt>
      <trkpt lat="45.97166" lon="2.75524">
        <ele>672.5795898</ele>
        <time>2013-09-25T09:05:49Z</time>
      </trkpt>
      <trkpt lat="45.97166" lon="2.75527">
        <ele>672.5795898</ele>
        <time>2013-09-25T09:06:07Z</time>
      </trkpt>
      <trkpt lat="45.9717" lon="2.75502">
        <ele>673.0603027</ele>
        <time>2013-09-25T09:06:25Z</time>
      </trkpt>
      <trkpt lat="45.97167" lon="2.75487">
        <ele>673.0603027</ele>
        <time>2013-09-25T09:06:36Z</time>
      </trkpt>
      <trkpt lat="45.9716" lon="2.75471">
        <ele>674.5021973</ele>
        <time>2013-09-25T09:06:47Z</time>
      </trkpt>
      <trkpt lat="45.97155" lon="2.75458">
        <ele>675.9440918</ele>
        <time>2013-09-25T09:06:56Z</time>
      </trkpt>
      <trkpt lat="45.97143" lon="2.75445">
        <ele>676.9055176</ele>
        <time>2013-09-25T09:07:07Z</time>
      </trkpt>
      <trkpt lat="45.97136" lon="2.75432">
        <ele>677.3862305</ele>
        <time>2013-09-25T09:07:19Z</time>
      </trkpt>
      <trkpt lat="45.97126" lon="2.75406">
        <ele>678.3474121</ele>
        <time>2013-09-25T09:07:37Z</time>
      </trkpt>
      <trkpt lat="45.97121" lon="2.75381">
        <ele>678.3474121</ele>
        <time>2013-09-25T09:07:56Z</time>
      </trkpt>
      <trkpt lat="45.97115" lon="2.75368">
        <ele>679.3085938</ele>
        <time>2013-09-25T09:08:06Z</time>
      </trkpt>
      <trkpt lat="45.97106" lon="2.75353">
        <ele>679.7893066</ele>
        <time>2013-09-25T09:08:18Z</time>
      </trkpt>
      <trkpt lat="45.97103" lon="2.75338">
        <ele>679.7893066</ele>
        <time>2013-09-25T09:08:29Z</time>
      </trkpt>
      <trkpt lat="45.9709" lon="2.75322">
        <ele>680.7507324</ele>
        <time>2013-09-25T09:08:42Z</time>
      </trkpt>
      <trkpt lat="45.97082" lon="2.75309">
        <ele>681.2314453</ele>
        <time>2013-09-25T09:08:52Z</time>
      </trkpt>
      <trkpt lat="45.97065" lon="2.75295">
        <ele>683.1538086</ele>
        <time>2013-09-25T09:09:05Z</time>
      </trkpt>
      <trkpt lat="45.97061" lon="2.75279">
        <ele>684.5961914</ele>
        <time>2013-09-25T09:09:17Z</time>
      </trkpt>
      <trkpt lat="45.97062" lon="2.75262">
        <ele>686.0380859</ele>
        <time>2013-09-25T09:09:28Z</time>
      </trkpt>
      <trkpt lat="45.9705" lon="2.75247">
        <ele>687.9606934</ele>
        <time>2013-09-25T09:09:42Z</time>
      </trkpt>
      <trkpt lat="45.97049" lon="2.75248">
        <ele>686.5187988</ele>
        <time>2013-09-25T09:09:56Z</time>
      </trkpt>
      <trkpt lat="45.97044" lon="2.75249">
        <ele>688.9221191</ele>
        <time>2013-09-25T09:10:18Z</time>
      </trkpt>
      <trkpt lat="45.97048" lon="2.75248">
        <ele>687.9606934</ele>
        <time>2013-09-25T09:10:39Z</time>
      </trkpt>
      <trkpt lat="45.97041" lon="2.75246">
        <ele>687.9606934</ele>
        <time>2013-09-25T09:11:07Z</time>
      </trkpt>
      <trkpt lat="45.97039" lon="2.75246">
        <ele>687.9606934</ele>
        <time>2013-09-25T09:11:13Z</time>
      </trkpt>
      <trkpt lat="45.97041" lon="2.75261">
        <ele>687.4799805</ele>
        <time>2013-09-25T09:11:26Z</time>
      </trkpt>
      <trkpt lat="45.97047" lon="2.7526">
        <ele>687.4799805</ele>
        <time>2013-09-25T09:11:37Z</time>
      </trkpt>
      <trkpt lat="45.97047" lon="2.75252">
        <ele>686.9992676</ele>
        <time>2013-09-25T09:11:57Z</time>
      </trkpt>
      <trkpt lat="45.97044" lon="2.75247">
        <ele>686.5187988</ele>
        <time>2013-09-25T09:12:23Z</time>
      </trkpt>
      <trkpt lat="45.97044" lon="2.75246">
        <ele>686.9992676</ele>
        <time>2013-09-25T09:12:35Z</time>
      </trkpt>
      <trkpt lat="45.97046" lon="2.75248">
        <ele>686.9992676</ele>
        <time>2013-09-25T09:13:00Z</time>
      </trkpt>
      <trkpt lat="45.97043" lon="2.75247">
        <ele>686.5187988</ele>
        <time>2013-09-25T09:13:17Z</time>
      </trkpt>
      <trkpt lat="45.97037" lon="2.75247">
        <ele>686.5187988</ele>
        <time>2013-09-25T09:13:53Z</time>
      </trkpt>
      <trkpt lat="45.97031" lon="2.75245">
        <ele>686.9992676</ele>
        <time>2013-09-25T09:14:00Z</time>
      </trkpt>
      <trkpt lat="45.97014" lon="2.75242">
        <ele>686.0380859</ele>
        <time>2013-09-25T09:14:12Z</time>
      </trkpt>
      <trkpt lat="45.97012" lon="2.75244">
        <ele>686.5187988</ele>
        <time>2013-09-25T09:14:25Z</time>
      </trkpt>
      <trkpt lat="45.97036" lon="2.7525">
        <ele>685.557373</ele>
        <time>2013-09-25T09:14:38Z</time>
      </trkpt>
      <trkpt lat="45.97048" lon="2.75252">
        <ele>685.557373</ele>
        <time>2013-09-25T09:14:56Z</time>
      </trkpt>
      <trkpt lat="45.97043" lon="2.75251">
        <ele>685.557373</ele>
        <time>2013-09-25T09:15:19Z</time>
      </trkpt>
      <trkpt lat="45.9704" lon="2.75249">
        <ele>684.5961914</ele>
        <time>2013-09-25T09:15:40Z</time>
      </trkpt>
      <trkpt lat="45.97038" lon="2.75249">
        <ele>685.0769043</ele>
        <time>2013-09-25T09:16:00Z</time>
      </trkpt>
      <trkpt lat="45.97048" lon="2.75243">
        <ele>684.5961914</ele>
        <time>2013-09-25T09:16:10Z</time>
      </trkpt>
      <trkpt lat="45.97045" lon="2.75249">
        <ele>684.5961914</ele>
        <time>2013-09-25T09:16:28Z</time>
      </trkpt>
      <trkpt lat="45.97038" lon="2.75253">
        <ele>684.1154785</ele>
        <time>2013-09-25T09:16:43Z</time>
      </trkpt>
      <trkpt lat="45.97032" lon="2.75249">
        <ele>684.5961914</ele>
        <time>2013-09-25T09:17:02Z</time>
      </trkpt>
      <trkpt lat="45.97046" lon="2.75246">
        <ele>685.0769043</ele>
        <time>2013-09-25T09:17:32Z</time>
      </trkpt>
      <trkpt lat="45.97038" lon="2.75247">
        <ele>685.557373</ele>
        <time>2013-09-25T09:17:43Z</time>
      </trkpt>
      <trkpt lat="45.97037" lon="2.75247">
        <ele>685.0769043</ele>
        <time>2013-09-25T09:17:44Z</time>
      </trkpt>
      <trkpt lat="45.97017" lon="2.75251">
        <ele>686.9992676</ele>
        <time>2013-09-25T09:17:57Z</time>
      </trkpt>
      <trkpt lat="45.96995" lon="2.75255">
        <ele>687.4799805</ele>
        <time>2013-09-25T09:18:15Z</time>
      </trkpt>
      <trkpt lat="45.96976" lon="2.75255">
        <ele>686.9992676</ele>
        <time>2013-09-25T09:18:33Z</time>
      </trkpt>
      <trkpt lat="45.96957" lon="2.75256">
        <ele>686.5187988</ele>
        <time>2013-09-25T09:18:52Z</time>
      </trkpt>
      <trkpt lat="45.96942" lon="2.75255">
        <ele>686.5187988</ele>
        <time>2013-09-25T09:19:09Z</time>
      </trkpt>
      <trkpt lat="45.96927" lon="2.75253">
        <ele>686.9992676</ele>
        <time>2013-09-25T09:19:23Z</time>
      </trkpt>
      <trkpt lat="45.96915" lon="2.75252">
        <ele>688.9221191</ele>
        <time>2013-09-25T09:19:39Z</time>
      </trkpt>
      <trkpt lat="45.96901" lon="2.75254">
        <ele>688.4414063</ele>
        <time>2013-09-25T09:19:54Z</time>
      </trkpt>
      <trkpt lat="45.96886" lon="2.75255">
        <ele>688.9221191</ele>
        <time>2013-09-25T09:20:08Z</time>
      </trkpt>
      <trkpt lat="45.96869" lon="2.75254">
        <ele>688.4414063</ele>
        <time>2013-09-25T09:20:22Z</time>
      </trkpt>
      <trkpt lat="45.96847" lon="2.75257">
        <ele>689.8833008</ele>
        <time>2013-09-25T09:20:36Z</time>
      </trkpt>
      <trkpt lat="45.96831" lon="2.75259">
        <ele>689.8833008</ele>
        <time>2013-09-25T09:20:49Z</time>
      </trkpt>
      <trkpt lat="45.96818" lon="2.75251">
        <ele>691.3251953</ele>
        <time>2013-09-25T09:21:02Z</time>
      </trkpt>
      <trkpt lat="45.96807" lon="2.75239">
        <ele>691.8059082</ele>
        <time>2013-09-25T09:21:17Z</time>
      </trkpt>
      <trkpt lat="45.96794" lon="2.75224">
        <ele>692.2866211</ele>
        <time>2013-09-25T09:21:32Z</time>
      </trkpt>
      <trkpt lat="45.96783" lon="2.75211">
        <ele>692.767334</ele>
        <time>2013-09-25T09:21:49Z</time>
      </trkpt>
      <trkpt lat="45.96774" lon="2.75203">
        <ele>692.767334</ele>
        <time>2013-09-25T09:22:02Z</time>
      </trkpt>
      <trkpt lat="45.96758" lon="2.75197">
        <ele>693.7285156</ele>
        <time>2013-09-25T09:22:16Z</time>
      </trkpt>
      <trkpt lat="45.96742" lon="2.75196">
        <ele>694.6896973</ele>
        <time>2013-09-25T09:22:26Z</time>
      </trkpt>
      <trkpt lat="45.96727" lon="2.75185">
        <ele>694.2092285</ele>
        <time>2013-09-25T09:22:43Z</time>
      </trkpt>
      <trkpt lat="45.96715" lon="2.75179">
        <ele>694.2092285</ele>
        <time>2013-09-25T09:22:56Z</time>
      </trkpt>
      <trkpt lat="45.96711" lon="2.75176">
        <ele>694.6896973</ele>
        <time>2013-09-25T09:23:04Z</time>
      </trkpt>
      <trkpt lat="45.96696" lon="2.75174">
        <ele>695.1704102</ele>
        <time>2013-09-25T09:23:16Z</time>
      </trkpt>
      <trkpt lat="45.96675" lon="2.75174">
        <ele>695.1704102</ele>
        <time>2013-09-25T09:23:31Z</time>
      </trkpt>
      <trkpt lat="45.96659" lon="2.75173">
        <ele>695.651123</ele>
        <time>2013-09-25T09:23:46Z</time>
      </trkpt>
      <trkpt lat="45.96639" lon="2.75172">
        <ele>695.651123</ele>
        <time>2013-09-25T09:24:02Z</time>
      </trkpt>
      <trkpt lat="45.96621" lon="2.75173">
        <ele>695.651123</ele>
        <time>2013-09-25T09:24:19Z</time>
      </trkpt>
      <trkpt lat="45.96603" lon="2.75171">
        <ele>696.6125488</ele>
        <time>2013-09-25T09:24:32Z</time>
      </trkpt>
      <trkpt lat="45.96587" lon="2.7517">
        <ele>696.1318359</ele>
        <time>2013-09-25T09:24:42Z</time>
      </trkpt>
      <trkpt lat="45.96564" lon="2.7517">
        <ele>696.1318359</ele>
        <time>2013-09-25T09:25:01Z</time>
      </trkpt>
      <trkpt lat="45.96549" lon="2.75166">
        <ele>696.1318359</ele>
        <time>2013-09-25T09:25:13Z</time>
      </trkpt>
      <trkpt lat="45.96532" lon="2.75166">
        <ele>697.0930176</ele>
        <time>2013-09-25T09:25:27Z</time>
      </trkpt>
      <trkpt lat="45.96511" lon="2.75169">
        <ele>697.0930176</ele>
        <time>2013-09-25T09:25:42Z</time>
      </trkpt>
      <trkpt lat="45.96488" lon="2.75176">
        <ele>697.5737305</ele>
        <time>2013-09-25T09:26:00Z</time>
      </trkpt>
      <trkpt lat="45.96468" lon="2.75179">
        <ele>698.0544434</ele>
        <time>2013-09-25T09:26:20Z</time>
      </trkpt>
      <trkpt lat="45.96452" lon="2.7518">
        <ele>698.0544434</ele>
        <time>2013-09-25T09:26:36Z</time>
      </trkpt>
      <trkpt lat="45.96435" lon="2.75181">
        <ele>698.0544434</ele>
        <time>2013-09-25T09:26:53Z</time>
      </trkpt>
      <trkpt lat="45.9642" lon="2.75179">
        <ele>698.0544434</ele>
        <time>2013-09-25T09:27:06Z</time>
      </trkpt>
      <trkpt lat="45.96397" lon="2.7518">
        <ele>699.9770508</ele>
        <time>2013-09-25T09:27:25Z</time>
      </trkpt>
      <trkpt lat="45.96375" lon="2.75186">
        <ele>700.9384766</ele>
        <time>2013-09-25T09:27:42Z</time>
      </trkpt>
      <trkpt lat="45.96358" lon="2.75186">
        <ele>700.9384766</ele>
        <time>2013-09-25T09:27:56Z</time>
      </trkpt>
      <trkpt lat="45.96352" lon="2.75183">
        <ele>700.4580078</ele>
        <time>2013-09-25T09:28:06Z</time>
      </trkpt>
      <trkpt lat="45.96338" lon="2.75177">
        <ele>700.4580078</ele>
        <time>2013-09-25T09:28:17Z</time>
      </trkpt>
      <trkpt lat="45.96327" lon="2.75172">
        <ele>699.9770508</ele>
        <time>2013-09-25T09:28:29Z</time>
      </trkpt>
      <trkpt lat="45.96316" lon="2.75167">
        <ele>700.4580078</ele>
        <time>2013-09-25T09:28:41Z</time>
      </trkpt>
      <trkpt lat="45.96305" lon="2.75163">
        <ele>700.9384766</ele>
        <time>2013-09-25T09:28:51Z</time>
      </trkpt>
      <trkpt lat="45.96293" lon="2.75153">
        <ele>699.9770508</ele>
        <time>2013-09-25T09:29:04Z</time>
      </trkpt>
      <trkpt lat="45.96281" lon="2.75147">
        <ele>699.9770508</ele>
        <time>2013-09-25T09:29:18Z</time>
      </trkpt>
      <trkpt lat="45.96261" lon="2.75153">
        <ele>702.3803711</ele>
        <time>2013-09-25T09:29:36Z</time>
      </trkpt>
      <trkpt lat="45.96255" lon="2.75155">
        <ele>701.8999023</ele>
        <time>2013-09-25T09:29:40Z</time>
      </trkpt>
      <trkpt lat="45.96235" lon="2.75162">
        <ele>701.8999023</ele>
        <time>2013-09-25T09:29:57Z</time>
      </trkpt>
      <trkpt lat="45.96222" lon="2.75167">
        <ele>702.861084</ele>
        <time>2013-09-25T09:30:13Z</time>
      </trkpt>
      <trkpt lat="45.96226" lon="2.75169">
        <ele>702.861084</ele>
        <time>2013-09-25T09:30:23Z</time>
      </trkpt>
      <trkpt lat="45.96234" lon="2.75163">
        <ele>702.3803711</ele>
        <time>2013-09-25T09:30:34Z</time>
      </trkpt>
      <trkpt lat="45.96225" lon="2.75166">
        <ele>702.3803711</ele>
        <time>2013-09-25T09:31:14Z</time>
      </trkpt>
      <trkpt lat="45.96217" lon="2.75168">
        <ele>702.3803711</ele>
        <time>2013-09-25T09:31:49Z</time>
      </trkpt>
      <trkpt lat="45.96217" lon="2.7517">
        <ele>702.861084</ele>
        <time>2013-09-25T09:31:53Z</time>
      </trkpt>
      <trkpt lat="45.96222" lon="2.7517">
        <ele>702.861084</ele>
        <time>2013-09-25T09:31:57Z</time>
      </trkpt>
      <trkpt lat="45.96221" lon="2.75165">
        <ele>702.861084</ele>
        <time>2013-09-25T09:32:10Z</time>
      </trkpt>
      <trkpt lat="45.96219" lon="2.75157">
        <ele>703.3417969</ele>
        <time>2013-09-25T09:32:24Z</time>
      </trkpt>
      <trkpt lat="45.96217" lon="2.75151">
        <ele>702.3803711</ele>
        <time>2013-09-25T09:32:38Z</time>
      </trkpt>
      <trkpt lat="45.96203" lon="2.7515">
        <ele>702.861084</ele>
        <time>2013-09-25T09:32:50Z</time>
      </trkpt>
      <trkpt lat="45.96191" lon="2.75149">
        <ele>702.861084</ele>
        <time>2013-09-25T09:32:58Z</time>
      </trkpt>
      <trkpt lat="45.96182" lon="2.75142">
        <ele>702.3803711</ele>
        <time>2013-09-25T09:33:10Z</time>
      </trkpt>
      <trkpt lat="45.96176" lon="2.75136">
        <ele>702.3803711</ele>
        <time>2013-09-25T09:33:17Z</time>
      </trkpt>
      <trkpt lat="45.96161" lon="2.75125">
        <ele>702.861084</ele>
        <time>2013-09-25T09:33:35Z</time>
      </trkpt>
      <trkpt lat="45.96147" lon="2.75109">
        <ele>702.861084</ele>
        <time>2013-09-25T09:33:51Z</time>
      </trkpt>
      <trkpt lat="45.96135" lon="2.75094">
        <ele>702.3803711</ele>
        <time>2013-09-25T09:34:04Z</time>
      </trkpt>
      <trkpt lat="45.96118" lon="2.75075">
        <ele>701.4191895</ele>
        <time>2013-09-25T09:34:24Z</time>
      </trkpt>
      <trkpt lat="45.96104" lon="2.75054">
        <ele>701.8999023</ele>
        <time>2013-09-25T09:34:42Z</time>
      </trkpt>
      <trkpt lat="45.96085" lon="2.75036">
        <ele>702.3803711</ele>
        <time>2013-09-25T09:35:01Z</time>
      </trkpt>
      <trkpt lat="45.96072" lon="2.75021">
        <ele>701.4191895</ele>
        <time>2013-09-25T09:35:16Z</time>
      </trkpt>
      <trkpt lat="45.9606" lon="2.74998">
        <ele>701.4191895</ele>
        <time>2013-09-25T09:35:34Z</time>
      </trkpt>
      <trkpt lat="45.96059" lon="2.74993">
        <ele>700.9384766</ele>
        <time>2013-09-25T09:35:38Z</time>
      </trkpt>
      <trkpt lat="45.96058" lon="2.74986">
        <ele>700.9384766</ele>
        <time>2013-09-25T09:35:43Z</time>
      </trkpt>
      <trkpt lat="45.96061" lon="2.74958">
        <ele>699.4963379</ele>
        <time>2013-09-25T09:36:01Z</time>
      </trkpt>
      <trkpt lat="45.96069" lon="2.74929">
        <ele>698.0544434</ele>
        <time>2013-09-25T09:36:20Z</time>
      </trkpt>
      <trkpt lat="45.96077" lon="2.74898">
        <ele>697.0930176</ele>
        <time>2013-09-25T09:36:42Z</time>
      </trkpt>
      <trkpt lat="45.96077" lon="2.74897">
        <ele>697.5737305</ele>
        <time>2013-09-25T09:36:43Z</time>
      </trkpt>
      <trkpt lat="45.96073" lon="2.74895">
        <ele>696.1318359</ele>
        <time>2013-09-25T09:36:46Z</time>
      </trkpt>
      <trkpt lat="45.96065" lon="2.74895">
        <ele>696.6125488</ele>
        <time>2013-09-25T09:36:59Z</time>
      </trkpt>
      <trkpt lat="45.9606" lon="2.74896">
        <ele>696.1318359</ele>
        <time>2013-09-25T09:37:12Z</time>
      </trkpt>
      <trkpt lat="45.96058" lon="2.74897">
        <ele>697.0930176</ele>
        <time>2013-09-25T09:37:34Z</time>
      </trkpt>
      <trkpt lat="45.96053" lon="2.7489">
        <ele>697.5737305</ele>
        <time>2013-09-25T09:37:49Z</time>
      </trkpt>
      <trkpt lat="45.9605" lon="2.74892">
        <ele>697.5737305</ele>
        <time>2013-09-25T09:38:03Z</time>
      </trkpt>
      <trkpt lat="45.96047" lon="2.74895">
        <ele>697.5737305</ele>
        <time>2013-09-25T09:38:08Z</time>
      </trkpt>
      <trkpt lat="45.9605" lon="2.74897">
        <ele>697.5737305</ele>
        <time>2013-09-25T09:38:23Z</time>
      </trkpt>
      <trkpt lat="45.96058" lon="2.74896">
        <ele>697.0930176</ele>
        <time>2013-09-25T09:38:38Z</time>
      </trkpt>
      <trkpt lat="45.96058" lon="2.74895">
        <ele>697.5737305</ele>
        <time>2013-09-25T09:38:54Z</time>
      </trkpt>
      <trkpt lat="45.96059" lon="2.74899">
        <ele>697.0930176</ele>
        <time>2013-09-25T09:39:21Z</time>
      </trkpt>
      <trkpt lat="45.96065" lon="2.74896">
        <ele>697.0930176</ele>
        <time>2013-09-25T09:39:29Z</time>
      </trkpt>
      <trkpt lat="45.96073" lon="2.749">
        <ele>697.5737305</ele>
        <time>2013-09-25T09:39:46Z</time>
      </trkpt>
      <trkpt lat="45.96076" lon="2.74898">
        <ele>697.5737305</ele>
        <time>2013-09-25T09:40:03Z</time>
      </trkpt>
      <trkpt lat="45.96077" lon="2.74898">
        <ele>698.0544434</ele>
        <time>2013-09-25T09:40:10Z</time>
      </trkpt>
      <trkpt lat="45.96079" lon="2.74892">
        <ele>698.5349121</ele>
        <time>2013-09-25T09:40:14Z</time>
      </trkpt>
      <trkpt lat="45.96086" lon="2.74855">
        <ele>697.0930176</ele>
        <time>2013-09-25T09:40:35Z</time>
      </trkpt>
      <trkpt lat="45.96076" lon="2.74837">
        <ele>696.1318359</ele>
        <time>2013-09-25T09:40:52Z</time>
      </trkpt>
      <trkpt lat="45.96063" lon="2.74835">
        <ele>697.0930176</ele>
        <time>2013-09-25T09:41:05Z</time>
      </trkpt>
      <trkpt lat="45.96048" lon="2.7483">
        <ele>696.6125488</ele>
        <time>2013-09-25T09:41:21Z</time>
      </trkpt>
      <trkpt lat="45.9604" lon="2.74826">
        <ele>695.1704102</ele>
        <time>2013-09-25T09:41:37Z</time>
      </trkpt>
      <trkpt lat="45.96035" lon="2.74826">
        <ele>695.1704102</ele>
        <time>2013-09-25T09:41:55Z</time>
      </trkpt>
      <trkpt lat="45.96022" lon="2.7482">
        <ele>694.6896973</ele>
        <time>2013-09-25T09:42:13Z</time>
      </trkpt>
      <trkpt lat="45.96005" lon="2.74815">
        <ele>696.1318359</ele>
        <time>2013-09-25T09:42:32Z</time>
      </trkpt>
      <trkpt lat="45.9599" lon="2.74811">
        <ele>696.1318359</ele>
        <time>2013-09-25T09:42:49Z</time>
      </trkpt>
      <trkpt lat="45.95981" lon="2.74809">
        <ele>696.1318359</ele>
        <time>2013-09-25T09:42:58Z</time>
      </trkpt>
      <trkpt lat="45.95962" lon="2.74801">
        <ele>695.1704102</ele>
        <time>2013-09-25T09:43:16Z</time>
      </trkpt>
      <trkpt lat="45.95944" lon="2.74797">
        <ele>694.2092285</ele>
        <time>2013-09-25T09:43:32Z</time>
      </trkpt>
      <trkpt lat="45.9592" lon="2.7479">
        <ele>694.2092285</ele>
        <time>2013-09-25T09:43:53Z</time>
      </trkpt>
      <trkpt lat="45.959" lon="2.74784">
        <ele>693.2478027</ele>
        <time>2013-09-25T09:44:11Z</time>
      </trkpt>
      <trkpt lat="45.95884" lon="2.7478">
        <ele>693.2478027</ele>
        <time>2013-09-25T09:44:27Z</time>
      </trkpt>
      <trkpt lat="45.95876" lon="2.74777">
        <ele>693.2478027</ele>
        <time>2013-09-25T09:44:34Z</time>
      </trkpt>
      <trkpt lat="45.95858" lon="2.74769">
        <ele>691.3251953</ele>
        <time>2013-09-25T09:44:50Z</time>
      </trkpt>
      <trkpt lat="45.95841" lon="2.74758">
        <ele>690.3640137</ele>
        <time>2013-09-25T09:45:07Z</time>
      </trkpt>
      <trkpt lat="45.95825" lon="2.74751">
        <ele>690.3640137</ele>
        <time>2013-09-25T09:45:23Z</time>
      </trkpt>
      <trkpt lat="45.95802" lon="2.74742">
        <ele>690.3640137</ele>
        <time>2013-09-25T09:45:44Z</time>
      </trkpt>
      <trkpt lat="45.95783" lon="2.74737">
        <ele>690.3640137</ele>
        <time>2013-09-25T09:46:02Z</time>
      </trkpt>
      <trkpt lat="45.95766" lon="2.74732">
        <ele>689.8833008</ele>
        <time>2013-09-25T09:46:20Z</time>
      </trkpt>
      <trkpt lat="45.95746" lon="2.74724">
        <ele>688.9221191</ele>
        <time>2013-09-25T09:46:36Z</time>
      </trkpt>
      <trkpt lat="45.95729" lon="2.74719">
        <ele>687.9606934</ele>
        <time>2013-09-25T09:46:51Z</time>
      </trkpt>
      <trkpt lat="45.95716" lon="2.74716">
        <ele>687.9606934</ele>
        <time>2013-09-25T09:47:03Z</time>
      </trkpt>
      <trkpt lat="45.95708" lon="2.74713">
        <ele>687.9606934</ele>
        <time>2013-09-25T09:47:10Z</time>
      </trkpt>
      <trkpt lat="45.95687" lon="2.74705">
        <ele>686.5187988</ele>
        <time>2013-09-25T09:47:26Z</time>
      </trkpt>
      <trkpt lat="45.95668" lon="2.74698">
        <ele>686.0380859</ele>
        <time>2013-09-25T09:47:43Z</time>
      </trkpt>
      <trkpt lat="45.95644" lon="2.7469">
        <ele>685.557373</ele>
        <time>2013-09-25T09:48:03Z</time>
      </trkpt>
      <trkpt lat="45.95627" lon="2.74683">
        <ele>683.6345215</ele>
        <time>2013-09-25T09:48:18Z</time>
      </trkpt>
      <trkpt lat="45.95607" lon="2.74675">
        <ele>683.6345215</ele>
        <time>2013-09-25T09:48:37Z</time>
      </trkpt>
      <trkpt lat="45.95588" lon="2.74667">
        <ele>683.1538086</ele>
        <time>2013-09-25T09:48:54Z</time>
      </trkpt>
      <trkpt lat="45.95566" lon="2.74656">
        <ele>681.2314453</ele>
        <time>2013-09-25T09:49:13Z</time>
      </trkpt>
      <trkpt lat="45.9555" lon="2.74647">
        <ele>680.2700195</ele>
        <time>2013-09-25T09:49:28Z</time>
      </trkpt>
      <trkpt lat="45.9553" lon="2.74634">
        <ele>679.3085938</ele>
        <time>2013-09-25T09:49:44Z</time>
      </trkpt>
      <trkpt lat="45.95511" lon="2.74617">
        <ele>678.828125</ele>
        <time>2013-09-25T09:50:04Z</time>
      </trkpt>
      <trkpt lat="45.95488" lon="2.74598">
        <ele>677.3862305</ele>
        <time>2013-09-25T09:50:26Z</time>
      </trkpt>
      <trkpt lat="45.95476" lon="2.74583">
        <ele>677.3862305</ele>
        <time>2013-09-25T09:50:39Z</time>
      </trkpt>
      <trkpt lat="45.95469" lon="2.74576">
        <ele>677.3862305</ele>
        <time>2013-09-25T09:50:46Z</time>
      </trkpt>
      <trkpt lat="45.95455" lon="2.74564">
        <ele>674.9829102</ele>
        <time>2013-09-25T09:51:02Z</time>
      </trkpt>
      <trkpt lat="45.9544" lon="2.7455">
        <ele>672.098877</ele>
        <time>2013-09-25T09:51:19Z</time>
      </trkpt>
      <trkpt lat="45.95433" lon="2.74546">
        <ele>672.5795898</ele>
        <time>2013-09-25T09:51:36Z</time>
      </trkpt>
      <trkpt lat="45.95433" lon="2.74546">
        <ele>672.098877</ele>
        <time>2013-09-25T09:51:56Z</time>
      </trkpt>
      <trkpt lat="45.95434" lon="2.74546">
        <ele>671.6181641</ele>
        <time>2013-09-25T09:52:19Z</time>
      </trkpt>
      <trkpt lat="45.95435" lon="2.74539">
        <ele>671.6181641</ele>
        <time>2013-09-25T09:52:56Z</time>
      </trkpt>
      <trkpt lat="45.95436" lon="2.74543">
        <ele>671.6181641</ele>
        <time>2013-09-25T09:53:18Z</time>
      </trkpt>
      <trkpt lat="45.95433" lon="2.74549">
        <ele>671.6181641</ele>
        <time>2013-09-25T09:53:44Z</time>
      </trkpt>
      <trkpt lat="45.95436" lon="2.74548">
        <ele>672.098877</ele>
        <time>2013-09-25T09:54:13Z</time>
      </trkpt>
      <trkpt lat="45.95442" lon="2.74544">
        <ele>672.098877</ele>
        <time>2013-09-25T09:54:30Z</time>
      </trkpt>
      <trkpt lat="45.95436" lon="2.74544">
        <ele>671.6181641</ele>
        <time>2013-09-25T09:54:45Z</time>
      </trkpt>
      <trkpt lat="45.95431" lon="2.74546">
        <ele>671.6181641</ele>
        <time>2013-09-25T09:55:01Z</time>
      </trkpt>
      <trkpt lat="45.95437" lon="2.74545">
        <ele>671.6181641</ele>
        <time>2013-09-25T09:55:20Z</time>
      </trkpt>
      <trkpt lat="45.9544" lon="2.74553">
        <ele>672.098877</ele>
        <time>2013-09-25T09:55:36Z</time>
      </trkpt>
      <trkpt lat="45.9544" lon="2.74553">
        <ele>672.098877</ele>
        <time>2013-09-25T09:55:58Z</time>
      </trkpt>
      <trkpt lat="45.95438" lon="2.7455">
        <ele>671.6181641</ele>
        <time>2013-09-25T09:56:27Z</time>
      </trkpt>
      <trkpt lat="45.95439" lon="2.74551">
        <ele>671.6181641</ele>
        <time>2013-09-25T09:56:55Z</time>
      </trkpt>
      <trkpt lat="45.95438" lon="2.74549">
        <ele>672.098877</ele>
        <time>2013-09-25T09:57:30Z</time>
      </trkpt>
      <trkpt lat="45.95438" lon="2.7455">
        <ele>672.098877</ele>
        <time>2013-09-25T09:57:57Z</time>
      </trkpt>
      <trkpt lat="45.95438" lon="2.74549">
        <ele>671.1376953</ele>
        <time>2013-09-25T09:58:26Z</time>
      </trkpt>
      <trkpt lat="45.95441" lon="2.74551">
        <ele>671.1376953</ele>
        <time>2013-09-25T09:59:23Z</time>
      </trkpt>
      <trkpt lat="45.95447" lon="2.74553">
        <ele>671.1376953</ele>
        <time>2013-09-25T10:00:02Z</time>
      </trkpt>
      <trkpt lat="45.9544" lon="2.74549">
        <ele>671.6181641</ele>
        <time>2013-09-25T10:00:33Z</time>
      </trkpt>
      <trkpt lat="45.95439" lon="2.74552">
        <ele>671.6181641</ele>
        <time>2013-09-25T10:01:04Z</time>
      </trkpt>
      <trkpt lat="45.95436" lon="2.74555">
        <ele>671.1376953</ele>
        <time>2013-09-25T10:01:55Z</time>
      </trkpt>
      <trkpt lat="45.95443" lon="2.74549">
        <ele>670.6569824</ele>
        <time>2013-09-25T10:02:19Z</time>
      </trkpt>
      <trkpt lat="45.95442" lon="2.74552">
        <ele>671.1376953</ele>
        <time>2013-09-25T10:02:59Z</time>
      </trkpt>
      <trkpt lat="45.95443" lon="2.74548">
        <ele>671.1376953</ele>
        <time>2013-09-25T10:04:10Z</time>
      </trkpt>
      <trkpt lat="45.95441" lon="2.74552">
        <ele>671.1376953</ele>
        <time>2013-09-25T10:04:57Z</time>
      </trkpt>
      <trkpt lat="45.9544" lon="2.74555">
        <ele>670.1762695</ele>
        <time>2013-09-25T10:05:29Z</time>
      </trkpt>
      <trkpt lat="45.9544" lon="2.74548">
        <ele>671.1376953</ele>
        <time>2013-09-25T10:06:18Z</time>
      </trkpt>
      <trkpt lat="45.95434" lon="2.74552">
        <ele>670.6569824</ele>
        <time>2013-09-25T10:06:52Z</time>
      </trkpt>
      <trkpt lat="45.9544" lon="2.74551">
        <ele>670.6569824</ele>
        <time>2013-09-25T10:07:28Z</time>
      </trkpt>
      <trkpt lat="45.95442" lon="2.74549">
        <ele>670.6569824</ele>
        <time>2013-09-25T10:09:09Z</time>
      </trkpt>
      <trkpt lat="45.95442" lon="2.74548">
        <ele>670.6569824</ele>
        <time>2013-09-25T10:10:02Z</time>
      </trkpt>
      <trkpt lat="45.9544" lon="2.74555">
        <ele>671.1376953</ele>
        <time>2013-09-25T10:10:44Z</time>
      </trkpt>
      <trkpt lat="45.95443" lon="2.74548">
        <ele>670.6569824</ele>
        <time>2013-09-25T10:11:10Z</time>
      </trkpt>
      <trkpt lat="45.95442" lon="2.74549">
        <ele>671.6181641</ele>
        <time>2013-09-25T10:12:11Z</time>
      </trkpt>
      <trkpt lat="45.95444" lon="2.74545">
        <ele>671.1376953</ele>
        <time>2013-09-25T10:13:02Z</time>
      </trkpt>
      <trkpt lat="45.95438" lon="2.74552">
        <ele>672.098877</ele>
        <time>2013-09-25T10:14:25Z</time>
      </trkpt>
      <trkpt lat="45.95439" lon="2.74548">
        <ele>671.6181641</ele>
        <time>2013-09-25T10:14:58Z</time>
      </trkpt>
      <trkpt lat="45.95442" lon="2.74554">
        <ele>673.0603027</ele>
        <time>2013-09-25T10:16:16Z</time>
      </trkpt>
      <trkpt lat="45.95441" lon="2.74551">
        <ele>671.6181641</ele>
        <time>2013-09-25T10:16:45Z</time>
      </trkpt>
      <trkpt lat="45.95441" lon="2.7455">
        <ele>672.5795898</ele>
        <time>2013-09-25T10:17:25Z</time>
      </trkpt>
      <trkpt lat="45.9544" lon="2.74552">
        <ele>671.6181641</ele>
        <time>2013-09-25T10:17:43Z</time>
      </trkpt>
      <trkpt lat="45.95439" lon="2.74552">
        <ele>672.098877</ele>
        <time>2013-09-25T10:18:02Z</time>
      </trkpt>
      <trkpt lat="45.95442" lon="2.74543">
        <ele>673.0603027</ele>
        <time>2013-09-25T10:18:49Z</time>
      </trkpt>
      <trkpt lat="45.95439" lon="2.74549">
        <ele>672.5795898</ele>
        <time>2013-09-25T10:20:01Z</time>
      </trkpt>
      <trkpt lat="45.95438" lon="2.74551">
        <ele>673.0603027</ele>
        <time>2013-09-25T10:20:32Z</time>
      </trkpt>
      <trkpt lat="45.95438" lon="2.74547">
        <ele>673.0603027</ele>
        <time>2013-09-25T10:21:12Z</time>
      </trkpt>
      <trkpt lat="45.95438" lon="2.74549">
        <ele>673.0603027</ele>
        <time>2013-09-25T10:21:35Z</time>
      </trkpt>
      <trkpt lat="45.95439" lon="2.74548">
        <ele>672.5795898</ele>
        <time>2013-09-25T10:22:07Z</time>
      </trkpt>
      <trkpt lat="45.95439" lon="2.74545">
        <ele>673.0603027</ele>
        <time>2013-09-25T10:22:26Z</time>
      </trkpt>
      <trkpt lat="45.95439" lon="2.74542">
        <ele>673.5410156</ele>
        <time>2013-09-25T10:22:58Z</time>
      </trkpt>
      <trkpt lat="45.95439" lon="2.74547">
        <ele>672.5795898</ele>
        <time>2013-09-25T10:23:26Z</time>
      </trkpt>
      <trkpt lat="45.95439" lon="2.7455">
        <ele>672.5795898</ele>
        <time>2013-09-25T10:23:55Z</time>
      </trkpt>
      <trkpt lat="45.95441" lon="2.74549">
        <ele>672.098877</ele>
        <time>2013-09-25T10:24:23Z</time>
      </trkpt>
      <trkpt lat="45.95439" lon="2.74542">
        <ele>672.5795898</ele>
        <time>2013-09-25T10:24:46Z</time>
      </trkpt>
      <trkpt lat="45.95437" lon="2.74539">
        <ele>673.0603027</ele>
        <time>2013-09-25T10:25:21Z</time>
      </trkpt>
      <trkpt lat="45.95438" lon="2.74543">
        <ele>674.0214844</ele>
        <time>2013-09-25T10:25:45Z</time>
      </trkpt>
      <trkpt lat="45.95438" lon="2.74546">
        <ele>674.5021973</ele>
        <time>2013-09-25T10:26:22Z</time>
      </trkpt>
      <trkpt lat="45.95438" lon="2.74548">
        <ele>674.5021973</ele>
        <time>2013-09-25T10:26:45Z</time>
      </trkpt>
      <trkpt lat="45.95438" lon="2.74548">
        <ele>674.5021973</ele>
        <time>2013-09-25T10:27:21Z</time>
      </trkpt>
      <trkpt lat="45.95438" lon="2.74546">
        <ele>674.0214844</ele>
        <time>2013-09-25T10:27:50Z</time>
      </trkpt>
      <trkpt lat="45.95438" lon="2.74549">
        <ele>674.5021973</ele>
        <time>2013-09-25T10:28:12Z</time>
      </trkpt>
      <trkpt lat="45.9544" lon="2.74551">
        <ele>674.5021973</ele>
        <time>2013-09-25T10:28:28Z</time>
      </trkpt>
      <trkpt lat="45.95438" lon="2.74555">
        <ele>674.0214844</ele>
        <time>2013-09-25T10:29:02Z</time>
      </trkpt>
      <trkpt lat="45.95431" lon="2.74548">
        <ele>674.0214844</ele>
        <time>2013-09-25T10:29:15Z</time>
      </trkpt>
      <trkpt lat="45.95428" lon="2.74546">
        <ele>673.0603027</ele>
        <time>2013-09-25T10:29:31Z</time>
      </trkpt>
      <trkpt lat="45.95433" lon="2.74548">
        <ele>673.0603027</ele>
        <time>2013-09-25T10:29:47Z</time>
      </trkpt>
      <trkpt lat="45.95431" lon="2.74545">
        <ele>672.5795898</ele>
        <time>2013-09-25T10:30:14Z</time>
      </trkpt>
      <trkpt lat="45.95431" lon="2.74542">
        <ele>673.5410156</ele>
        <time>2013-09-25T10:30:45Z</time>
      </trkpt>
      <trkpt lat="45.95432" lon="2.74544">
        <ele>673.0603027</ele>
        <time>2013-09-25T10:31:06Z</time>
      </trkpt>
      <trkpt lat="45.95433" lon="2.74546">
        <ele>673.5410156</ele>
        <time>2013-09-25T10:31:38Z</time>
      </trkpt>
      <trkpt lat="45.95431" lon="2.74545">
        <ele>674.5021973</ele>
        <time>2013-09-25T10:32:11Z</time>
      </trkpt>
      <trkpt lat="45.9543" lon="2.74541">
        <ele>674.0214844</ele>
        <time>2013-09-25T10:32:33Z</time>
      </trkpt>
      <trkpt lat="45.9543" lon="2.74545">
        <ele>673.5410156</ele>
        <time>2013-09-25T10:33:00Z</time>
      </trkpt>
      <trkpt lat="45.95429" lon="2.74546">
        <ele>672.5795898</ele>
        <time>2013-09-25T10:33:26Z</time>
      </trkpt>
      <trkpt lat="45.95432" lon="2.74545">
        <ele>672.5795898</ele>
        <time>2013-09-25T10:34:12Z</time>
      </trkpt>
      <trkpt lat="45.95434" lon="2.74547">
        <ele>672.5795898</ele>
        <time>2013-09-25T10:34:39Z</time>
      </trkpt>
      <trkpt lat="45.95432" lon="2.74546">
        <ele>672.5795898</ele>
        <time>2013-09-25T10:35:09Z</time>
      </trkpt>
      <trkpt lat="45.95434" lon="2.74547">
        <ele>671.6181641</ele>
        <time>2013-09-25T10:35:43Z</time>
      </trkpt>
      <trkpt lat="45.95433" lon="2.74545">
        <ele>672.098877</ele>
        <time>2013-09-25T10:36:13Z</time>
      </trkpt>
      <trkpt lat="45.95435" lon="2.74545">
        <ele>672.098877</ele>
        <time>2013-09-25T10:36:29Z</time>
      </trkpt>
      <trkpt lat="45.95429" lon="2.74546">
        <ele>672.098877</ele>
        <time>2013-09-25T10:36:48Z</time>
      </trkpt>
      <trkpt lat="45.95429" lon="2.74547">
        <ele>672.5795898</ele>
        <time>2013-09-25T10:37:11Z</time>
      </trkpt>
      <trkpt lat="45.95428" lon="2.74545">
        <ele>673.0603027</ele>
        <time>2013-09-25T10:37:32Z</time>
      </trkpt>
      <trkpt lat="45.95428" lon="2.74545">
        <ele>673.0603027</ele>
        <time>2013-09-25T10:37:53Z</time>
      </trkpt>
      <trkpt lat="45.95428" lon="2.74545">
        <ele>671.6181641</ele>
        <time>2013-09-25T10:38:19Z</time>
      </trkpt>
      <trkpt lat="45.95429" lon="2.74546">
        <ele>672.098877</ele>
        <time>2013-09-25T10:38:39Z</time>
      </trkpt>
      <trkpt lat="45.95429" lon="2.74546">
        <ele>672.5795898</ele>
        <time>2013-09-25T10:39:05Z</time>
      </trkpt>
      <trkpt lat="45.95424" lon="2.74548">
        <ele>673.0603027</ele>
        <time>2013-09-25T10:39:21Z</time>
      </trkpt>
      <trkpt lat="45.95419" lon="2.74551">
        <ele>672.098877</ele>
        <time>2013-09-25T10:39:51Z</time>
      </trkpt>
      <trkpt lat="45.95424" lon="2.7455">
        <ele>670.6569824</ele>
        <time>2013-09-25T10:40:24Z</time>
      </trkpt>
      <trkpt lat="45.95418" lon="2.74556">
        <ele>670.6569824</ele>
        <time>2013-09-25T10:40:42Z</time>
      </trkpt>
      <trkpt lat="45.95405" lon="2.7458">
        <ele>669.2150879</ele>
        <time>2013-09-25T10:41:05Z</time>
      </trkpt>
      <trkpt lat="45.95399" lon="2.74597">
        <ele>669.6958008</ele>
        <time>2013-09-25T10:41:21Z</time>
      </trkpt>
      <trkpt lat="45.95394" lon="2.7461">
        <ele>667.2922363</ele>
        <time>2013-09-25T10:41:31Z</time>
      </trkpt>
      <trkpt lat="45.95389" lon="2.74637">
        <ele>663.9274902</ele>
        <time>2013-09-25T10:41:50Z</time>
      </trkpt>
      <trkpt lat="45.95386" lon="2.74662">
        <ele>660.5629883</ele>
        <time>2013-09-25T10:42:08Z</time>
      </trkpt>
      <trkpt lat="45.95381" lon="2.74697">
        <ele>658.1599121</ele>
        <time>2013-09-25T10:42:31Z</time>
      </trkpt>
      <trkpt lat="45.95377" lon="2.74724">
        <ele>656.7177734</ele>
        <time>2013-09-25T10:42:47Z</time>
      </trkpt>
      <trkpt lat="45.95376" lon="2.74744">
        <ele>655.2758789</ele>
        <time>2013-09-25T10:43:01Z</time>
      </trkpt>
      <trkpt lat="45.95375" lon="2.74746">
        <ele>655.2758789</ele>
        <time>2013-09-25T10:43:03Z</time>
      </trkpt>
      <trkpt lat="45.95353" lon="2.74757">
        <ele>654.3146973</ele>
        <time>2013-09-25T10:43:24Z</time>
      </trkpt>
      <trkpt lat="45.95333" lon="2.74759">
        <ele>653.3532715</ele>
        <time>2013-09-25T10:43:41Z</time>
      </trkpt>
      <trkpt lat="45.95312" lon="2.74754">
        <ele>653.8339844</ele>
        <time>2013-09-25T10:43:59Z</time>
      </trkpt>
      <trkpt lat="45.95294" lon="2.74754">
        <ele>654.3146973</ele>
        <time>2013-09-25T10:44:13Z</time>
      </trkpt>
      <trkpt lat="45.95281" lon="2.74754">
        <ele>654.795166</ele>
        <time>2013-09-25T10:44:28Z</time>
      </trkpt>
      <trkpt lat="45.95277" lon="2.74757">
        <ele>655.2758789</ele>
        <time>2013-09-25T10:44:59Z</time>
      </trkpt>
      <trkpt lat="45.9527" lon="2.74756">
        <ele>655.2758789</ele>
        <time>2013-09-25T10:45:13Z</time>
      </trkpt>
      <trkpt lat="45.95254" lon="2.74758">
        <ele>655.2758789</ele>
        <time>2013-09-25T10:45:29Z</time>
      </trkpt>
      <trkpt lat="45.95236" lon="2.74762">
        <ele>656.7177734</ele>
        <time>2013-09-25T10:45:44Z</time>
      </trkpt>
      <trkpt lat="45.95221" lon="2.74765">
        <ele>657.1984863</ele>
        <time>2013-09-25T10:45:58Z</time>
      </trkpt>
      <trkpt lat="45.95207" lon="2.74768">
        <ele>659.1210938</ele>
        <time>2013-09-25T10:46:12Z</time>
      </trkpt>
      <trkpt lat="45.95196" lon="2.7478">
        <ele>659.6018066</ele>
        <time>2013-09-25T10:46:28Z</time>
      </trkpt>
      <trkpt lat="45.95196" lon="2.74781">
        <ele>659.6018066</ele>
        <time>2013-09-25T10:46:29Z</time>
      </trkpt>
      <trkpt lat="45.95184" lon="2.74797">
        <ele>661.0437012</ele>
        <time>2013-09-25T10:46:45Z</time>
      </trkpt>
      <trkpt lat="45.95175" lon="2.74811">
        <ele>663.4470215</ele>
        <time>2013-09-25T10:46:57Z</time>
      </trkpt>
      <trkpt lat="45.9516" lon="2.74832">
        <ele>664.888916</ele>
        <time>2013-09-25T10:47:17Z</time>
      </trkpt>
      <trkpt lat="45.95152" lon="2.74849">
        <ele>664.888916</ele>
        <time>2013-09-25T10:47:32Z</time>
      </trkpt>
      <trkpt lat="45.95148" lon="2.74851">
        <ele>664.888916</ele>
        <time>2013-09-25T10:47:37Z</time>
      </trkpt>
      <trkpt lat="45.95132" lon="2.74834">
        <ele>664.4082031</ele>
        <time>2013-09-25T10:47:56Z</time>
      </trkpt>
      <trkpt lat="45.95118" lon="2.74812">
        <ele>662.9663086</ele>
        <time>2013-09-25T10:48:18Z</time>
      </trkpt>
      <trkpt lat="45.95105" lon="2.74791">
        <ele>661.0437012</ele>
        <time>2013-09-25T10:48:39Z</time>
      </trkpt>
      <trkpt lat="45.95094" lon="2.74774">
        <ele>659.1210938</ele>
        <time>2013-09-25T10:48:57Z</time>
      </trkpt>
      <trkpt lat="45.95081" lon="2.74756">
        <ele>657.6791992</ele>
        <time>2013-09-25T10:49:17Z</time>
      </trkpt>
      <trkpt lat="45.95068" lon="2.74741">
        <ele>655.2758789</ele>
        <time>2013-09-25T10:49:33Z</time>
      </trkpt>
      <trkpt lat="45.95059" lon="2.7473">
        <ele>651.9111328</ele>
        <time>2013-09-25T10:49:46Z</time>
      </trkpt>
      <trkpt lat="45.95046" lon="2.74717">
        <ele>649.0270996</ele>
        <time>2013-09-25T10:50:07Z</time>
      </trkpt>
      <trkpt lat="45.95037" lon="2.74712">
        <ele>645.6625977</ele>
        <time>2013-09-25T10:50:23Z</time>
      </trkpt>
      <trkpt lat="45.95026" lon="2.74704">
        <ele>642.2980957</ele>
        <time>2013-09-25T10:50:39Z</time>
      </trkpt>
      <trkpt lat="45.95017" lon="2.74698">
        <ele>640.3754883</ele>
        <time>2013-09-25T10:50:53Z</time>
      </trkpt>
      <trkpt lat="45.95008" lon="2.74689">
        <ele>638.4528809</ele>
        <time>2013-09-25T10:51:04Z</time>
      </trkpt>
      <trkpt lat="45.94997" lon="2.7468">
        <ele>637.0107422</ele>
        <time>2013-09-25T10:51:20Z</time>
      </trkpt>
      <trkpt lat="45.94984" lon="2.7467">
        <ele>637.4914551</ele>
        <time>2013-09-25T10:51:37Z</time>
      </trkpt>
      <trkpt lat="45.94972" lon="2.74662">
        <ele>639.4140625</ele>
        <time>2013-09-25T10:51:51Z</time>
      </trkpt>
      <trkpt lat="45.94953" lon="2.74659">
        <ele>642.2980957</ele>
        <time>2013-09-25T10:52:11Z</time>
      </trkpt>
      <trkpt lat="45.9494" lon="2.74651">
        <ele>642.7788086</ele>
        <time>2013-09-25T10:52:28Z</time>
      </trkpt>
      <trkpt lat="45.94929" lon="2.7464">
        <ele>644.7011719</ele>
        <time>2013-09-25T10:52:42Z</time>
      </trkpt>
      <trkpt lat="45.94923" lon="2.74628">
        <ele>648.065918</ele>
        <time>2013-09-25T10:52:55Z</time>
      </trkpt>
      <trkpt lat="45.94923" lon="2.74617">
        <ele>648.5463867</ele>
        <time>2013-09-25T10:53:08Z</time>
      </trkpt>
      <trkpt lat="45.94923" lon="2.74605">
        <ele>649.9885254</ele>
        <time>2013-09-25T10:53:21Z</time>
      </trkpt>
      <trkpt lat="45.94921" lon="2.74593">
        <ele>651.9111328</ele>
        <time>2013-09-25T10:53:33Z</time>
      </trkpt>
      <trkpt lat="45.94918" lon="2.74574">
        <ele>654.795166</ele>
        <time>2013-09-25T10:53:49Z</time>
      </trkpt>
      <trkpt lat="45.94913" lon="2.74557">
        <ele>656.7177734</ele>
        <time>2013-09-25T10:54:05Z</time>
      </trkpt>
      <trkpt lat="45.94904" lon="2.74545">
        <ele>656.7177734</ele>
        <time>2013-09-25T10:54:19Z</time>
      </trkpt>
      <trkpt lat="45.94899" lon="2.74549">
        <ele>657.1984863</ele>
        <time>2013-09-25T10:54:27Z</time>
      </trkpt>
      <trkpt lat="45.94884" lon="2.74569">
        <ele>657.6791992</ele>
        <time>2013-09-25T10:54:49Z</time>
      </trkpt>
      <trkpt lat="45.94876" lon="2.74583">
        <ele>657.6791992</ele>
        <time>2013-09-25T10:55:03Z</time>
      </trkpt>
      <trkpt lat="45.94866" lon="2.74595">
        <ele>658.1599121</ele>
        <time>2013-09-25T10:55:18Z</time>
      </trkpt>
      <trkpt lat="45.94853" lon="2.74604">
        <ele>659.1210938</ele>
        <time>2013-09-25T10:55:32Z</time>
      </trkpt>
      <trkpt lat="45.94835" lon="2.74605">
        <ele>659.6018066</ele>
        <time>2013-09-25T10:55:51Z</time>
      </trkpt>
      <trkpt lat="45.94819" lon="2.74605">
        <ele>659.6018066</ele>
        <time>2013-09-25T10:56:07Z</time>
      </trkpt>
      <trkpt lat="45.94813" lon="2.74602">
        <ele>660.0822754</ele>
        <time>2013-09-25T10:56:13Z</time>
      </trkpt>
      <trkpt lat="45.94808" lon="2.74599">
        <ele>659.6018066</ele>
        <time>2013-09-25T10:56:17Z</time>
      </trkpt>
      <trkpt lat="45.9479" lon="2.74593">
        <ele>662.9663086</ele>
        <time>2013-09-25T10:56:33Z</time>
      </trkpt>
      <trkpt lat="45.94764" lon="2.74573">
        <ele>663.4470215</ele>
        <time>2013-09-25T10:56:59Z</time>
      </trkpt>
      <trkpt lat="45.94743" lon="2.74554">
        <ele>662.9663086</ele>
        <time>2013-09-25T10:57:19Z</time>
      </trkpt>
      <trkpt lat="45.94723" lon="2.74537">
        <ele>663.9274902</ele>
        <time>2013-09-25T10:57:41Z</time>
      </trkpt>
      <trkpt lat="45.94705" lon="2.74514">
        <ele>663.9274902</ele>
        <time>2013-09-25T10:58:03Z</time>
      </trkpt>
      <trkpt lat="45.9469" lon="2.74493">
        <ele>663.4470215</ele>
        <time>2013-09-25T10:58:23Z</time>
      </trkpt>
      <trkpt lat="45.9467" lon="2.74471">
        <ele>662.4855957</ele>
        <time>2013-09-25T10:58:45Z</time>
      </trkpt>
      <trkpt lat="45.94648" lon="2.74448">
        <ele>662.005127</ele>
        <time>2013-09-25T10:59:08Z</time>
      </trkpt>
      <trkpt lat="45.94624" lon="2.74421">
        <ele>661.0437012</ele>
        <time>2013-09-25T10:59:33Z</time>
      </trkpt>
      <trkpt lat="45.94607" lon="2.74398">
        <ele>660.0822754</ele>
        <time>2013-09-25T10:59:51Z</time>
      </trkpt>
      <trkpt lat="45.94596" lon="2.74374">
        <ele>658.1599121</ele>
        <time>2013-09-25T11:00:10Z</time>
      </trkpt>
      <trkpt lat="45.94582" lon="2.74343">
        <ele>657.1984863</ele>
        <time>2013-09-25T11:00:30Z</time>
      </trkpt>
      <trkpt lat="45.94574" lon="2.74321">
        <ele>655.7565918</ele>
        <time>2013-09-25T11:00:48Z</time>
      </trkpt>
      <trkpt lat="45.94564" lon="2.74295">
        <ele>655.2758789</ele>
        <time>2013-09-25T11:01:10Z</time>
      </trkpt>
      <trkpt lat="45.94551" lon="2.74259">
        <ele>654.795166</ele>
        <time>2013-09-25T11:01:32Z</time>
      </trkpt>
      <trkpt lat="45.94542" lon="2.74228">
        <ele>651.9111328</ele>
        <time>2013-09-25T11:01:54Z</time>
      </trkpt>
      <trkpt lat="45.94537" lon="2.74202">
        <ele>649.0270996</ele>
        <time>2013-09-25T11:02:11Z</time>
      </trkpt>
      <trkpt lat="45.94534" lon="2.74189">
        <ele>647.5852051</ele>
        <time>2013-09-25T11:02:20Z</time>
      </trkpt>
      <trkpt lat="45.94529" lon="2.74168">
        <ele>646.1433105</ele>
        <time>2013-09-25T11:02:35Z</time>
      </trkpt>
      <trkpt lat="45.94522" lon="2.74137">
        <ele>645.6625977</ele>
        <time>2013-09-25T11:02:57Z</time>
      </trkpt>
      <trkpt lat="45.9452" lon="2.7413">
        <ele>644.7011719</ele>
        <time>2013-09-25T11:02:59Z</time>
      </trkpt>
      <trkpt lat="45.94518" lon="2.74102">
        <ele>641.8173828</ele>
        <time>2013-09-25T11:03:18Z</time>
      </trkpt>
      <trkpt lat="45.94514" lon="2.74091">
        <ele>641.3366699</ele>
        <time>2013-09-25T11:03:27Z</time>
      </trkpt>
      <trkpt lat="45.94487" lon="2.7407">
        <ele>640.3754883</ele>
        <time>2013-09-25T11:03:51Z</time>
      </trkpt>
      <trkpt lat="45.94463" lon="2.74056">
        <ele>638.9335938</ele>
        <time>2013-09-25T11:04:12Z</time>
      </trkpt>
      <trkpt lat="45.94441" lon="2.74047">
        <ele>637.4914551</ele>
        <time>2013-09-25T11:04:33Z</time>
      </trkpt>
      <trkpt lat="45.94424" lon="2.74042">
        <ele>634.6074219</ele>
        <time>2013-09-25T11:04:48Z</time>
      </trkpt>
      <trkpt lat="45.94406" lon="2.74035">
        <ele>632.2041016</ele>
        <time>2013-09-25T11:05:05Z</time>
      </trkpt>
      <trkpt lat="45.94391" lon="2.74031">
        <ele>629.3200684</ele>
        <time>2013-09-25T11:05:22Z</time>
      </trkpt>
      <trkpt lat="45.9439" lon="2.74031">
        <ele>628.8395996</ele>
        <time>2013-09-25T11:05:24Z</time>
      </trkpt>
      <trkpt lat="45.94374" lon="2.74017">
        <ele>627.3977051</ele>
        <time>2013-09-25T11:05:40Z</time>
      </trkpt>
      <trkpt lat="45.94357" lon="2.74003">
        <ele>625.9555664</ele>
        <time>2013-09-25T11:05:56Z</time>
      </trkpt>
      <trkpt lat="45.94341" lon="2.74">
        <ele>624.9943848</ele>
        <time>2013-09-25T11:06:12Z</time>
      </trkpt>
      <trkpt lat="45.94322" lon="2.74001">
        <ele>621.6296387</ele>
        <time>2013-09-25T11:06:32Z</time>
      </trkpt>
      <trkpt lat="45.94303" lon="2.74">
        <ele>619.2263184</ele>
        <time>2013-09-25T11:06:51Z</time>
      </trkpt>
      <trkpt lat="45.9429" lon="2.73996">
        <ele>618.7456055</ele>
        <time>2013-09-25T11:07:04Z</time>
      </trkpt>
      <trkpt lat="45.94277" lon="2.73993">
        <ele>618.7456055</ele>
        <time>2013-09-25T11:07:20Z</time>
      </trkpt>
      <trkpt lat="45.94258" lon="2.73997">
        <ele>619.2263184</ele>
        <time>2013-09-25T11:07:36Z</time>
      </trkpt>
      <trkpt lat="45.9424" lon="2.74003">
        <ele>619.7070313</ele>
        <time>2013-09-25T11:07:52Z</time>
      </trkpt>
      <trkpt lat="45.94223" lon="2.74006">
        <ele>621.1491699</ele>
        <time>2013-09-25T11:08:07Z</time>
      </trkpt>
      <trkpt lat="45.94209" lon="2.74006">
        <ele>622.1103516</ele>
        <time>2013-09-25T11:08:22Z</time>
      </trkpt>
      <trkpt lat="45.94192" lon="2.74004">
        <ele>624.032959</ele>
        <time>2013-09-25T11:08:37Z</time>
      </trkpt>
      <trkpt lat="45.94171" lon="2.74004">
        <ele>624.9943848</ele>
        <time>2013-09-25T11:08:52Z</time>
      </trkpt>
      <trkpt lat="45.94155" lon="2.74002">
        <ele>626.4362793</ele>
        <time>2013-09-25T11:09:07Z</time>
      </trkpt>
      <trkpt lat="45.94144" lon="2.74004">
        <ele>626.9169922</ele>
        <time>2013-09-25T11:09:22Z</time>
      </trkpt>
      <trkpt lat="45.94131" lon="2.74009">
        <ele>625.4748535</ele>
        <time>2013-09-25T11:09:38Z</time>
      </trkpt>
      <trkpt lat="45.94109" lon="2.74006">
        <ele>624.5136719</ele>
        <time>2013-09-25T11:09:56Z</time>
      </trkpt>
      <trkpt lat="45.94088" lon="2.74003">
        <ele>624.5136719</ele>
        <time>2013-09-25T11:10:09Z</time>
      </trkpt>
      <trkpt lat="45.94077" lon="2.73996">
        <ele>624.5136719</ele>
        <time>2013-09-25T11:10:20Z</time>
      </trkpt>
      <trkpt lat="45.94061" lon="2.73995">
        <ele>624.032959</ele>
        <time>2013-09-25T11:10:35Z</time>
      </trkpt>
      <trkpt lat="45.94044" lon="2.73996">
        <ele>624.9943848</ele>
        <time>2013-09-25T11:10:50Z</time>
      </trkpt>
      <trkpt lat="45.94031" lon="2.73993">
        <ele>624.5136719</ele>
        <time>2013-09-25T11:11:03Z</time>
      </trkpt>
      <trkpt lat="45.94029" lon="2.73995">
        <ele>625.4748535</ele>
        <time>2013-09-25T11:11:05Z</time>
      </trkpt>
      <trkpt lat="45.94014" lon="2.7399">
        <ele>626.4362793</ele>
        <time>2013-09-25T11:11:21Z</time>
      </trkpt>
      <trkpt lat="45.93994" lon="2.73986">
        <ele>625.4748535</ele>
        <time>2013-09-25T11:11:37Z</time>
      </trkpt>
      <trkpt lat="45.93978" lon="2.73982">
        <ele>624.032959</ele>
        <time>2013-09-25T11:11:50Z</time>
      </trkpt>
      <trkpt lat="45.93955" lon="2.73979">
        <ele>622.1103516</ele>
        <time>2013-09-25T11:12:09Z</time>
      </trkpt>
      <trkpt lat="45.93938" lon="2.73975">
        <ele>621.6296387</ele>
        <time>2013-09-25T11:12:25Z</time>
      </trkpt>
      <trkpt lat="45.93922" lon="2.7397">
        <ele>618.7456055</ele>
        <time>2013-09-25T11:12:40Z</time>
      </trkpt>
      <trkpt lat="45.93904" lon="2.73964">
        <ele>619.2263184</ele>
        <time>2013-09-25T11:12:54Z</time>
      </trkpt>
      <trkpt lat="45.93894" lon="2.73962">
        <ele>620.1877441</ele>
        <time>2013-09-25T11:13:04Z</time>
      </trkpt>
      <trkpt lat="45.93879" lon="2.73961">
        <ele>621.1491699</ele>
        <time>2013-09-25T11:13:19Z</time>
      </trkpt>
      <trkpt lat="45.93862" lon="2.73959">
        <ele>622.1103516</ele>
        <time>2013-09-25T11:13:35Z</time>
      </trkpt>
      <trkpt lat="45.93841" lon="2.73957">
        <ele>624.032959</ele>
        <time>2013-09-25T11:13:53Z</time>
      </trkpt>
      <trkpt lat="45.93819" lon="2.73952">
        <ele>625.9555664</ele>
        <time>2013-09-25T11:14:11Z</time>
      </trkpt>
      <trkpt lat="45.93798" lon="2.73947">
        <ele>627.3977051</ele>
        <time>2013-09-25T11:14:28Z</time>
      </trkpt>
      <trkpt lat="45.93775" lon="2.73945">
        <ele>628.8395996</ele>
        <time>2013-09-25T11:14:46Z</time>
      </trkpt>
      <trkpt lat="45.93766" lon="2.73942">
        <ele>628.8395996</ele>
        <time>2013-09-25T11:14:54Z</time>
      </trkpt>
      <trkpt lat="45.93758" lon="2.73943">
        <ele>629.8007813</ele>
        <time>2013-09-25T11:15:08Z</time>
      </trkpt>
      <trkpt lat="45.93756" lon="2.73951">
        <ele>630.2814941</ele>
        <time>2013-09-25T11:15:36Z</time>
      </trkpt>
      <trkpt lat="45.93757" lon="2.73953">
        <ele>630.2814941</ele>
        <time>2013-09-25T11:15:45Z</time>
      </trkpt>
      <trkpt lat="45.93752" lon="2.73952">
        <ele>630.2814941</ele>
        <time>2013-09-25T11:15:49Z</time>
      </trkpt>
      <trkpt lat="45.9373" lon="2.73945">
        <ele>630.762207</ele>
        <time>2013-09-25T11:16:07Z</time>
      </trkpt>
      <trkpt lat="45.93713" lon="2.73945">
        <ele>631.2429199</ele>
        <time>2013-09-25T11:16:22Z</time>
      </trkpt>
      <trkpt lat="45.93695" lon="2.73941">
        <ele>632.2041016</ele>
        <time>2013-09-25T11:16:35Z</time>
      </trkpt>
      <trkpt lat="45.93678" lon="2.7394">
        <ele>630.762207</ele>
        <time>2013-09-25T11:16:49Z</time>
      </trkpt>
      <trkpt lat="45.9366" lon="2.7394">
        <ele>629.8007813</ele>
        <time>2013-09-25T11:17:02Z</time>
      </trkpt>
      <trkpt lat="45.93642" lon="2.73941">
        <ele>628.8395996</ele>
        <time>2013-09-25T11:17:18Z</time>
      </trkpt>
      <trkpt lat="45.9363" lon="2.73938">
        <ele>627.8781738</ele>
        <time>2013-09-25T11:17:26Z</time>
      </trkpt>
      <trkpt lat="45.93611" lon="2.73936">
        <ele>627.8781738</ele>
        <time>2013-09-25T11:17:41Z</time>
      </trkpt>
      <trkpt lat="45.9359" lon="2.73938">
        <ele>624.9943848</ele>
        <time>2013-09-25T11:17:57Z</time>
      </trkpt>
      <trkpt lat="45.93572" lon="2.73937">
        <ele>624.5136719</ele>
        <time>2013-09-25T11:18:14Z</time>
      </trkpt>
      <trkpt lat="45.9357" lon="2.73949">
        <ele>624.5136719</ele>
        <time>2013-09-25T11:18:27Z</time>
      </trkpt>
      <trkpt lat="45.93568" lon="2.73955">
        <ele>624.032959</ele>
        <time>2013-09-25T11:18:31Z</time>
      </trkpt>
      <trkpt lat="45.93561" lon="2.73977">
        <ele>623.0717773</ele>
        <time>2013-09-25T11:18:45Z</time>
      </trkpt>
      <trkpt lat="45.93556" lon="2.73997">
        <ele>622.5910645</ele>
        <time>2013-09-25T11:18:59Z</time>
      </trkpt>
      <trkpt lat="45.93552" lon="2.74023">
        <ele>622.1103516</ele>
        <time>2013-09-25T11:19:14Z</time>
      </trkpt>
      <trkpt lat="45.93548" lon="2.74038">
        <ele>622.5910645</ele>
        <time>2013-09-25T11:19:25Z</time>
      </trkpt>
      <trkpt lat="45.93544" lon="2.74058">
        <ele>620.1877441</ele>
        <time>2013-09-25T11:19:37Z</time>
      </trkpt>
      <trkpt lat="45.93536" lon="2.74087">
        <ele>619.7070313</ele>
        <time>2013-09-25T11:19:55Z</time>
      </trkpt>
      <trkpt lat="45.93534" lon="2.74096">
        <ele>618.7456055</ele>
        <time>2013-09-25T11:20:00Z</time>
      </trkpt>
      <trkpt lat="45.93524" lon="2.74138">
        <ele>618.7456055</ele>
        <time>2013-09-25T11:20:22Z</time>
      </trkpt>
      <trkpt lat="45.93518" lon="2.74174">
        <ele>618.7456055</ele>
        <time>2013-09-25T11:20:42Z</time>
      </trkpt>
      <trkpt lat="45.93514" lon="2.74207">
        <ele>618.2648926</ele>
        <time>2013-09-25T11:21:00Z</time>
      </trkpt>
      <trkpt lat="45.93511" lon="2.7424">
        <ele>618.2648926</ele>
        <time>2013-09-25T11:21:18Z</time>
      </trkpt>
      <trkpt lat="45.93503" lon="2.74262">
        <ele>617.7841797</ele>
        <time>2013-09-25T11:21:35Z</time>
      </trkpt>
      <trkpt lat="45.93501" lon="2.74263">
        <ele>616.822998</ele>
        <time>2013-09-25T11:21:37Z</time>
      </trkpt>
      <trkpt lat="45.93484" lon="2.74268">
        <ele>617.3037109</ele>
        <time>2013-09-25T11:21:53Z</time>
      </trkpt>
      <trkpt lat="45.93473" lon="2.74262">
        <ele>617.3037109</ele>
        <time>2013-09-25T11:22:04Z</time>
      </trkpt>
      <trkpt lat="45.93469" lon="2.7426">
        <ele>617.7841797</ele>
        <time>2013-09-25T11:22:07Z</time>
      </trkpt>
      <trkpt lat="45.93466" lon="2.74258">
        <ele>618.7456055</ele>
        <time>2013-09-25T11:22:09Z</time>
      </trkpt>
      <trkpt lat="45.93453" lon="2.74248">
        <ele>619.2263184</ele>
        <time>2013-09-25T11:22:22Z</time>
      </trkpt>
      <trkpt lat="45.93437" lon="2.74238">
        <ele>621.1491699</ele>
        <time>2013-09-25T11:22:36Z</time>
      </trkpt>
      <trkpt lat="45.93417" lon="2.7423">
        <ele>623.0717773</ele>
        <time>2013-09-25T11:22:53Z</time>
      </trkpt>
      <trkpt lat="45.93399" lon="2.7423">
        <ele>623.5524902</ele>
        <time>2013-09-25T11:23:10Z</time>
      </trkpt>
      <trkpt lat="45.93386" lon="2.7423">
        <ele>626.4362793</ele>
        <time>2013-09-25T11:23:25Z</time>
      </trkpt>
      <trkpt lat="45.93376" lon="2.74232">
        <ele>627.8781738</ele>
        <time>2013-09-25T11:23:36Z</time>
      </trkpt>
      <trkpt lat="45.93365" lon="2.74235">
        <ele>629.8007813</ele>
        <time>2013-09-25T11:23:50Z</time>
      </trkpt>
      <trkpt lat="45.93355" lon="2.74243">
        <ele>631.2429199</ele>
        <time>2013-09-25T11:24:02Z</time>
      </trkpt>
      <trkpt lat="45.93345" lon="2.74257">
        <ele>633.1652832</ele>
        <time>2013-09-25T11:24:19Z</time>
      </trkpt>
      <trkpt lat="45.93337" lon="2.74275">
        <ele>635.0881348</ele>
        <time>2013-09-25T11:24:36Z</time>
      </trkpt>
      <trkpt lat="45.93331" lon="2.74295">
        <ele>636.5302734</ele>
        <time>2013-09-25T11:24:51Z</time>
      </trkpt>
      <trkpt lat="45.93326" lon="2.7431">
        <ele>639.4140625</ele>
        <time>2013-09-25T11:25:04Z</time>
      </trkpt>
      <trkpt lat="45.93318" lon="2.74336">
        <ele>639.4140625</ele>
        <time>2013-09-25T11:25:22Z</time>
      </trkpt>
      <trkpt lat="45.93317" lon="2.74337">
        <ele>642.7788086</ele>
        <time>2013-09-25T11:25:23Z</time>
      </trkpt>
      <trkpt lat="45.93316" lon="2.7434">
        <ele>641.8173828</ele>
        <time>2013-09-25T11:25:25Z</time>
      </trkpt>
      <trkpt lat="45.93309" lon="2.74364">
        <ele>641.8173828</ele>
        <time>2013-09-25T11:25:40Z</time>
      </trkpt>
      <trkpt lat="45.93306" lon="2.74381">
        <ele>644.2207031</ele>
        <time>2013-09-25T11:25:51Z</time>
      </trkpt>
      <trkpt lat="45.93303" lon="2.74405">
        <ele>643.7399902</ele>
        <time>2013-09-25T11:26:06Z</time>
      </trkpt>
      <trkpt lat="45.933" lon="2.74427">
        <ele>644.2207031</ele>
        <time>2013-09-25T11:26:21Z</time>
      </trkpt>
      <trkpt lat="45.93299" lon="2.74434">
        <ele>645.1818848</ele>
        <time>2013-09-25T11:26:25Z</time>
      </trkpt>
      <trkpt lat="45.93295" lon="2.74462">
        <ele>645.6625977</ele>
        <time>2013-09-25T11:26:40Z</time>
      </trkpt>
      <trkpt lat="45.93296" lon="2.7448">
        <ele>646.1433105</ele>
        <time>2013-09-25T11:26:51Z</time>
      </trkpt>
      <trkpt lat="45.93296" lon="2.74513">
        <ele>646.1433105</ele>
        <time>2013-09-25T11:27:08Z</time>
      </trkpt>
      <trkpt lat="45.93294" lon="2.74545">
        <ele>645.1818848</ele>
        <time>2013-09-25T11:27:25Z</time>
      </trkpt>
      <trkpt lat="45.93291" lon="2.7458">
        <ele>643.7399902</ele>
        <time>2013-09-25T11:27:44Z</time>
      </trkpt>
      <trkpt lat="45.93288" lon="2.74605">
        <ele>644.7011719</ele>
        <time>2013-09-25T11:27:58Z</time>
      </trkpt>
      <trkpt lat="45.9329" lon="2.74623">
        <ele>645.1818848</ele>
        <time>2013-09-25T11:28:17Z</time>
      </trkpt>
      <trkpt lat="45.93293" lon="2.74625">
        <ele>644.7011719</ele>
        <time>2013-09-25T11:28:32Z</time>
      </trkpt>
      <trkpt lat="45.93292" lon="2.74626">
        <ele>644.2207031</ele>
        <time>2013-09-25T11:29:04Z</time>
      </trkpt>
      <trkpt lat="45.93294" lon="2.74625">
        <ele>644.2207031</ele>
        <time>2013-09-25T11:29:32Z</time>
      </trkpt>
      <trkpt lat="45.93298" lon="2.74625">
        <ele>644.7011719</ele>
        <time>2013-09-25T11:29:51Z</time>
      </trkpt>
      <trkpt lat="45.93299" lon="2.74626">
        <ele>644.2207031</ele>
        <time>2013-09-25T11:30:11Z</time>
      </trkpt>
      <trkpt lat="45.93294" lon="2.74626">
        <ele>644.7011719</ele>
        <time>2013-09-25T11:30:31Z</time>
      </trkpt>
      <trkpt lat="45.9329" lon="2.74623">
        <ele>644.2207031</ele>
        <time>2013-09-25T11:30:58Z</time>
      </trkpt>
      <trkpt lat="45.93291" lon="2.74623">
        <ele>643.7399902</ele>
        <time>2013-09-25T11:31:19Z</time>
      </trkpt>
      <trkpt lat="45.93291" lon="2.74623">
        <ele>642.7788086</ele>
        <time>2013-09-25T11:31:38Z</time>
      </trkpt>
      <trkpt lat="45.93291" lon="2.74625">
        <ele>644.2207031</ele>
        <time>2013-09-25T11:31:50Z</time>
      </trkpt>
      <trkpt lat="45.93293" lon="2.74625">
        <ele>642.7788086</ele>
        <time>2013-09-25T11:32:15Z</time>
      </trkpt>
      <trkpt lat="45.93292" lon="2.74627">
        <ele>642.7788086</ele>
        <time>2013-09-25T11:32:55Z</time>
      </trkpt>
      <trkpt lat="45.93293" lon="2.74625">
        <ele>643.2592773</ele>
        <time>2013-09-25T11:33:15Z</time>
      </trkpt>
      <trkpt lat="45.93291" lon="2.74624">
        <ele>643.2592773</ele>
        <time>2013-09-25T11:33:41Z</time>
      </trkpt>
      <trkpt lat="45.93291" lon="2.74626">
        <ele>643.2592773</ele>
        <time>2013-09-25T11:34:19Z</time>
      </trkpt>
      <trkpt lat="45.93293" lon="2.74625">
        <ele>641.8173828</ele>
        <time>2013-09-25T11:35:14Z</time>
      </trkpt>
      <trkpt lat="45.93293" lon="2.74626">
        <ele>641.8173828</ele>
        <time>2013-09-25T11:35:34Z</time>
      </trkpt>
      <trkpt lat="45.93293" lon="2.74626">
        <ele>642.2980957</ele>
        <time>2013-09-25T11:35:52Z</time>
      </trkpt>
      <trkpt lat="45.93292" lon="2.74626">
        <ele>642.2980957</ele>
        <time>2013-09-25T11:36:09Z</time>
      </trkpt>
      <trkpt lat="45.93295" lon="2.7463">
        <ele>642.2980957</ele>
        <time>2013-09-25T11:36:35Z</time>
      </trkpt>
      <trkpt lat="45.93297" lon="2.74657">
        <ele>643.2592773</ele>
        <time>2013-09-25T11:36:53Z</time>
      </trkpt>
      <trkpt lat="45.93295" lon="2.74694">
        <ele>644.2207031</ele>
        <time>2013-09-25T11:37:15Z</time>
      </trkpt>
      <trkpt lat="45.93286" lon="2.74729">
        <ele>645.1818848</ele>
        <time>2013-09-25T11:37:36Z</time>
      </trkpt>
      <trkpt lat="45.93275" lon="2.74763">
        <ele>645.1818848</ele>
        <time>2013-09-25T11:37:58Z</time>
      </trkpt>
      <trkpt lat="45.9326" lon="2.74798">
        <ele>646.1433105</ele>
        <time>2013-09-25T11:38:22Z</time>
      </trkpt>
      <trkpt lat="45.93246" lon="2.74816">
        <ele>646.6240234</ele>
        <time>2013-09-25T11:38:39Z</time>
      </trkpt>
      <trkpt lat="45.93227" lon="2.74836">
        <ele>649.5078125</ele>
        <time>2013-09-25T11:38:59Z</time>
      </trkpt>
      <trkpt lat="45.93202" lon="2.7486">
        <ele>648.5463867</ele>
        <time>2013-09-25T11:39:23Z</time>
      </trkpt>
      <trkpt lat="45.9318" lon="2.74881">
        <ele>649.5078125</ele>
        <time>2013-09-25T11:39:46Z</time>
      </trkpt>
      <trkpt lat="45.93156" lon="2.74904">
        <ele>649.9885254</ele>
        <time>2013-09-25T11:40:07Z</time>
      </trkpt>
      <trkpt lat="45.9314" lon="2.7492">
        <ele>648.5463867</ele>
        <time>2013-09-25T11:40:23Z</time>
      </trkpt>
      <trkpt lat="45.93117" lon="2.74924">
        <ele>649.0270996</ele>
        <time>2013-09-25T11:40:40Z</time>
      </trkpt>
      <trkpt lat="45.93094" lon="2.74918">
        <ele>647.5852051</ele>
        <time>2013-09-25T11:41:00Z</time>
      </trkpt>
      <trkpt lat="45.93077" lon="2.74908">
        <ele>646.6240234</ele>
        <time>2013-09-25T11:41:17Z</time>
      </trkpt>
      <trkpt lat="45.93054" lon="2.74893">
        <ele>647.5852051</ele>
        <time>2013-09-25T11:41:34Z</time>
      </trkpt>
      <trkpt lat="45.93034" lon="2.7489">
        <ele>647.1044922</ele>
        <time>2013-09-25T11:41:51Z</time>
      </trkpt>
      <trkpt lat="45.93023" lon="2.74905">
        <ele>648.5463867</ele>
        <time>2013-09-25T11:42:05Z</time>
      </trkpt>
      <trkpt lat="45.93019" lon="2.74912">
        <ele>649.0270996</ele>
        <time>2013-09-25T11:42:11Z</time>
      </trkpt>
      <trkpt lat="45.9301" lon="2.74928">
        <ele>652.3918457</ele>
        <time>2013-09-25T11:42:23Z</time>
      </trkpt>
      <trkpt lat="45.92996" lon="2.74943">
        <ele>654.795166</ele>
        <time>2013-09-25T11:42:39Z</time>
      </trkpt>
      <trkpt lat="45.92972" lon="2.74961">
        <ele>655.7565918</ele>
        <time>2013-09-25T11:43:01Z</time>
      </trkpt>
      <trkpt lat="45.92956" lon="2.74974">
        <ele>657.1984863</ele>
        <time>2013-09-25T11:43:17Z</time>
      </trkpt>
      <trkpt lat="45.92952" lon="2.74979">
        <ele>659.1210938</ele>
        <time>2013-09-25T11:43:22Z</time>
      </trkpt>
      <trkpt lat="45.92938" lon="2.75007">
        <ele>660.0822754</ele>
        <time>2013-09-25T11:43:43Z</time>
      </trkpt>
      <trkpt lat="45.92923" lon="2.75035">
        <ele>660.5629883</ele>
        <time>2013-09-25T11:44:03Z</time>
      </trkpt>
      <trkpt lat="45.92912" lon="2.75059">
        <ele>661.5244141</ele>
        <time>2013-09-25T11:44:20Z</time>
      </trkpt>
      <trkpt lat="45.92897" lon="2.75091">
        <ele>663.4470215</ele>
        <time>2013-09-25T11:44:41Z</time>
      </trkpt>
      <trkpt lat="45.9288" lon="2.75117">
        <ele>663.4470215</ele>
        <time>2013-09-25T11:45:02Z</time>
      </trkpt>
      <trkpt lat="45.92859" lon="2.75137">
        <ele>665.3696289</ele>
        <time>2013-09-25T11:45:23Z</time>
      </trkpt>
      <trkpt lat="45.92833" lon="2.75151">
        <ele>667.7727051</ele>
        <time>2013-09-25T11:45:45Z</time>
      </trkpt>
      <trkpt lat="45.92817" lon="2.7518">
        <ele>669.6958008</ele>
        <time>2013-09-25T11:46:06Z</time>
      </trkpt>
      <trkpt lat="45.92803" lon="2.75215">
        <ele>670.6569824</ele>
        <time>2013-09-25T11:46:26Z</time>
      </trkpt>
      <trkpt lat="45.92793" lon="2.75243">
        <ele>671.6181641</ele>
        <time>2013-09-25T11:46:43Z</time>
      </trkpt>
      <trkpt lat="45.92788" lon="2.75273">
        <ele>672.5795898</ele>
        <time>2013-09-25T11:47:01Z</time>
      </trkpt>
      <trkpt lat="45.92789" lon="2.75281">
        <ele>672.098877</ele>
        <time>2013-09-25T11:47:14Z</time>
      </trkpt>
      <trkpt lat="45.92788" lon="2.75283">
        <ele>673.0603027</ele>
        <time>2013-09-25T11:47:31Z</time>
      </trkpt>
      <trkpt lat="45.92787" lon="2.75281">
        <ele>672.5795898</ele>
        <time>2013-09-25T11:47:45Z</time>
      </trkpt>
      <trkpt lat="45.92788" lon="2.75278">
        <ele>672.098877</ele>
        <time>2013-09-25T11:48:12Z</time>
      </trkpt>
      <trkpt lat="45.92788" lon="2.75278">
        <ele>673.0603027</ele>
        <time>2013-09-25T11:48:41Z</time>
      </trkpt>
      <trkpt lat="45.92787" lon="2.75279">
        <ele>673.0603027</ele>
        <time>2013-09-25T11:49:14Z</time>
      </trkpt>
      <trkpt lat="45.92788" lon="2.75279">
        <ele>672.098877</ele>
        <time>2013-09-25T11:49:36Z</time>
      </trkpt>
      <trkpt lat="45.92788" lon="2.75277">
        <ele>672.098877</ele>
        <time>2013-09-25T11:49:55Z</time>
      </trkpt>
      <trkpt lat="45.92785" lon="2.75276">
        <ele>672.098877</ele>
        <time>2013-09-25T11:50:20Z</time>
      </trkpt>
      <trkpt lat="45.92785" lon="2.75277">
        <ele>672.098877</ele>
        <time>2013-09-25T11:50:42Z</time>
      </trkpt>
      <trkpt lat="45.92787" lon="2.75276">
        <ele>671.6181641</ele>
        <time>2013-09-25T11:51:12Z</time>
      </trkpt>
      <trkpt lat="45.92782" lon="2.75275">
        <ele>672.098877</ele>
        <time>2013-09-25T11:51:46Z</time>
      </trkpt>
      <trkpt lat="45.92782" lon="2.75273">
        <ele>672.098877</ele>
        <time>2013-09-25T11:52:03Z</time>
      </trkpt>
      <trkpt lat="45.92782" lon="2.75274">
        <ele>672.5795898</ele>
        <time>2013-09-25T11:52:25Z</time>
      </trkpt>
      <trkpt lat="45.92785" lon="2.75277">
        <ele>672.5795898</ele>
        <time>2013-09-25T11:52:53Z</time>
      </trkpt>
      <trkpt lat="45.92788" lon="2.75278">
        <ele>673.0603027</ele>
        <time>2013-09-25T11:53:15Z</time>
      </trkpt>
      <trkpt lat="45.92788" lon="2.75281">
        <ele>672.5795898</ele>
        <time>2013-09-25T11:53:21Z</time>
      </trkpt>
      <trkpt lat="45.92805" lon="2.75295">
        <ele>670.6569824</ele>
        <time>2013-09-25T11:53:42Z</time>
      </trkpt>
      <trkpt lat="45.9282" lon="2.75305">
        <ele>669.2150879</ele>
        <time>2013-09-25T11:53:59Z</time>
      </trkpt>
      <trkpt lat="45.92843" lon="2.75318">
        <ele>666.3308105</ele>
        <time>2013-09-25T11:54:20Z</time>
      </trkpt>
      <trkpt lat="45.92867" lon="2.75334">
        <ele>663.4470215</ele>
        <time>2013-09-25T11:54:42Z</time>
      </trkpt>
      <trkpt lat="45.92886" lon="2.75345">
        <ele>662.005127</ele>
        <time>2013-09-25T11:55:00Z</time>
      </trkpt>
      <trkpt lat="45.92903" lon="2.75357">
        <ele>660.5629883</ele>
        <time>2013-09-25T11:55:18Z</time>
      </trkpt>
      <trkpt lat="45.9292" lon="2.75368">
        <ele>658.6403809</ele>
        <time>2013-09-25T11:55:34Z</time>
      </trkpt>
      <trkpt lat="45.92938" lon="2.75382">
        <ele>656.2370605</ele>
        <time>2013-09-25T11:55:53Z</time>
      </trkpt>
      <trkpt lat="45.92954" lon="2.75399">
        <ele>653.3532715</ele>
        <time>2013-09-25T11:56:13Z</time>
      </trkpt>
      <trkpt lat="45.92969" lon="2.75418">
        <ele>650.4692383</ele>
        <time>2013-09-25T11:56:31Z</time>
      </trkpt>
      <trkpt lat="45.92974" lon="2.75422">
        <ele>649.0270996</ele>
        <time>2013-09-25T11:56:35Z</time>
      </trkpt>
      <trkpt lat="45.92994" lon="2.75437">
        <ele>645.6625977</ele>
        <time>2013-09-25T11:56:53Z</time>
      </trkpt>
      <trkpt lat="45.93016" lon="2.75444">
        <ele>642.2980957</ele>
        <time>2013-09-25T11:57:12Z</time>
      </trkpt>
      <trkpt lat="45.93034" lon="2.75447">
        <ele>640.855957</ele>
        <time>2013-09-25T11:57:31Z</time>
      </trkpt>
      <trkpt lat="45.93051" lon="2.7545">
        <ele>639.4140625</ele>
        <time>2013-09-25T11:57:48Z</time>
      </trkpt>
      <trkpt lat="45.93065" lon="2.75451">
        <ele>637.4914551</ele>
        <time>2013-09-25T11:57:57Z</time>
      </trkpt>
      <trkpt lat="45.93077" lon="2.75452">
        <ele>636.0495605</ele>
        <time>2013-09-25T11:58:10Z</time>
      </trkpt>
      <trkpt lat="45.9309" lon="2.75449">
        <ele>633.6459961</ele>
        <time>2013-09-25T11:58:25Z</time>
      </trkpt>
      <trkpt lat="45.93105" lon="2.75446">
        <ele>631.2429199</ele>
        <time>2013-09-25T11:58:40Z</time>
      </trkpt>
      <trkpt lat="45.93121" lon="2.75441">
        <ele>628.8395996</ele>
        <time>2013-09-25T11:58:54Z</time>
      </trkpt>
      <trkpt lat="45.93141" lon="2.75438">
        <ele>627.8781738</ele>
        <time>2013-09-25T11:59:14Z</time>
      </trkpt>
      <trkpt lat="45.93152" lon="2.75445">
        <ele>627.3977051</ele>
        <time>2013-09-25T11:59:29Z</time>
      </trkpt>
      <trkpt lat="45.93159" lon="2.75446">
        <ele>626.9169922</ele>
        <time>2013-09-25T11:59:44Z</time>
      </trkpt>
      <trkpt lat="45.9317" lon="2.75448">
        <ele>626.4362793</ele>
        <time>2013-09-25T11:59:59Z</time>
      </trkpt>
      <trkpt lat="45.93172" lon="2.7545">
        <ele>626.4362793</ele>
        <time>2013-09-25T12:00:06Z</time>
      </trkpt>
      <trkpt lat="45.93177" lon="2.75448">
        <ele>625.9555664</ele>
        <time>2013-09-25T12:00:19Z</time>
      </trkpt>
      <trkpt lat="45.93178" lon="2.75446">
        <ele>625.9555664</ele>
        <time>2013-09-25T12:00:32Z</time>
      </trkpt>
      <trkpt lat="45.9318" lon="2.75455">
        <ele>625.9555664</ele>
        <time>2013-09-25T12:01:06Z</time>
      </trkpt>
      <trkpt lat="45.93181" lon="2.7545">
        <ele>625.9555664</ele>
        <time>2013-09-25T12:01:31Z</time>
      </trkpt>
      <trkpt lat="45.93179" lon="2.75446">
        <ele>625.9555664</ele>
        <time>2013-09-25T12:01:42Z</time>
      </trkpt>
      <trkpt lat="45.93193" lon="2.75448">
        <ele>625.9555664</ele>
        <time>2013-09-25T12:01:56Z</time>
      </trkpt>
      <trkpt lat="45.93192" lon="2.75446">
        <ele>624.9943848</ele>
        <time>2013-09-25T12:02:08Z</time>
      </trkpt>
      <trkpt lat="45.93204" lon="2.75444">
        <ele>624.9943848</ele>
        <time>2013-09-25T12:02:22Z</time>
      </trkpt>
      <trkpt lat="45.93208" lon="2.75442">
        <ele>624.5136719</ele>
        <time>2013-09-25T12:02:37Z</time>
      </trkpt>
      <trkpt lat="45.93212" lon="2.75432">
        <ele>623.5524902</ele>
        <time>2013-09-25T12:02:52Z</time>
      </trkpt>
      <trkpt lat="45.93213" lon="2.75429">
        <ele>623.0717773</ele>
        <time>2013-09-25T12:02:55Z</time>
      </trkpt>
      <trkpt lat="45.93222" lon="2.75417">
        <ele>621.6296387</ele>
        <time>2013-09-25T12:03:06Z</time>
      </trkpt>
      <trkpt lat="45.93231" lon="2.75407">
        <ele>621.1491699</ele>
        <time>2013-09-25T12:03:17Z</time>
      </trkpt>
      <trkpt lat="45.93233" lon="2.75397">
        <ele>622.1103516</ele>
        <time>2013-09-25T12:03:24Z</time>
      </trkpt>
      <trkpt lat="45.93242" lon="2.75383">
        <ele>620.668457</ele>
        <time>2013-09-25T12:03:38Z</time>
      </trkpt>
      <trkpt lat="45.93254" lon="2.75378">
        <ele>621.1491699</ele>
        <time>2013-09-25T12:03:50Z</time>
      </trkpt>
      <trkpt lat="45.93281" lon="2.75377">
        <ele>621.1491699</ele>
        <time>2013-09-25T12:04:10Z</time>
      </trkpt>
      <trkpt lat="45.93308" lon="2.75375">
        <ele>621.1491699</ele>
        <time>2013-09-25T12:04:32Z</time>
      </trkpt>
      <trkpt lat="45.93325" lon="2.75362">
        <ele>622.1103516</ele>
        <time>2013-09-25T12:04:50Z</time>
      </trkpt>
      <trkpt lat="45.93335" lon="2.75356">
        <ele>621.1491699</ele>
        <time>2013-09-25T12:05:03Z</time>
      </trkpt>
      <trkpt lat="45.93336" lon="2.75356">
        <ele>621.1491699</ele>
        <time>2013-09-25T12:05:08Z</time>
      </trkpt>
      <trkpt lat="45.93349" lon="2.75368">
        <ele>618.2648926</ele>
        <time>2013-09-25T12:05:23Z</time>
      </trkpt>
      <trkpt lat="45.93357" lon="2.75375">
        <ele>617.3037109</ele>
        <time>2013-09-25T12:05:32Z</time>
      </trkpt>
      <trkpt lat="45.93367" lon="2.75383">
        <ele>616.3422852</ele>
        <time>2013-09-25T12:05:44Z</time>
      </trkpt>
      <trkpt lat="45.93375" lon="2.7539">
        <ele>615.8618164</ele>
        <time>2013-09-25T12:05:55Z</time>
      </trkpt>
      <trkpt lat="45.93396" lon="2.75395">
        <ele>615.3811035</ele>
        <time>2013-09-25T12:06:12Z</time>
      </trkpt>
      <trkpt lat="45.93408" lon="2.75399">
        <ele>615.3811035</ele>
        <time>2013-09-25T12:06:26Z</time>
      </trkpt>
      <trkpt lat="45.93419" lon="2.75419">
        <ele>615.3811035</ele>
        <time>2013-09-25T12:06:39Z</time>
      </trkpt>
      <trkpt lat="45.9343" lon="2.75439">
        <ele>613.9389648</ele>
        <time>2013-09-25T12:06:55Z</time>
      </trkpt>
      <trkpt lat="45.93439" lon="2.75454">
        <ele>612.0166016</ele>
        <time>2013-09-25T12:07:10Z</time>
      </trkpt>
      <trkpt lat="45.93439" lon="2.75461">
        <ele>610.09375</ele>
        <time>2013-09-25T12:07:18Z</time>
      </trkpt>
      <trkpt lat="45.93435" lon="2.75461">
        <ele>609.6132813</ele>
        <time>2013-09-25T12:07:25Z</time>
      </trkpt>
      <trkpt lat="45.93426" lon="2.75461">
        <ele>607.6906738</ele>
        <time>2013-09-25T12:07:36Z</time>
      </trkpt>
      <trkpt lat="45.93419" lon="2.75475">
        <ele>605.7680664</ele>
        <time>2013-09-25T12:07:50Z</time>
      </trkpt>
      <trkpt lat="45.9342" lon="2.7548">
        <ele>604.3261719</ele>
        <time>2013-09-25T12:07:54Z</time>
      </trkpt>
      <trkpt lat="45.93424" lon="2.75498">
        <ele>602.4030762</ele>
        <time>2013-09-25T12:08:07Z</time>
      </trkpt>
      <trkpt lat="45.93425" lon="2.75501">
        <ele>601.4418945</ele>
        <time>2013-09-25T12:08:09Z</time>
      </trkpt>
      <trkpt lat="45.93424" lon="2.75502">
        <ele>601.4418945</ele>
        <time>2013-09-25T12:08:10Z</time>
      </trkpt>
      <trkpt lat="45.93425" lon="2.75516">
        <ele>599.5192871</ele>
        <time>2013-09-25T12:08:23Z</time>
      </trkpt>
      <trkpt lat="45.93418" lon="2.75512">
        <ele>600</ele>
        <time>2013-09-25T12:08:39Z</time>
      </trkpt>
      <trkpt lat="45.9342" lon="2.75519">
        <ele>599.0385742</ele>
        <time>2013-09-25T12:08:53Z</time>
      </trkpt>
      <trkpt lat="45.93421" lon="2.75525">
        <ele>598.5578613</ele>
        <time>2013-09-25T12:08:57Z</time>
      </trkpt>
      <trkpt lat="45.9342" lon="2.7553">
        <ele>597.5966797</ele>
        <time>2013-09-25T12:09:00Z</time>
      </trkpt>
      <trkpt lat="45.93423" lon="2.75541">
        <ele>596.1547852</ele>
        <time>2013-09-25T12:09:06Z</time>
      </trkpt>
      <trkpt lat="45.93422" lon="2.75546">
        <ele>595.6740723</ele>
        <time>2013-09-25T12:09:09Z</time>
      </trkpt>
      <trkpt lat="45.93427" lon="2.7557">
        <ele>593.7514648</ele>
        <time>2013-09-25T12:09:25Z</time>
      </trkpt>
      <trkpt lat="45.93433" lon="2.75591">
        <ele>593.270752</ele>
        <time>2013-09-25T12:09:40Z</time>
      </trkpt>
      <trkpt lat="45.93439" lon="2.75602">
        <ele>593.270752</ele>
        <time>2013-09-25T12:09:48Z</time>
      </trkpt>
      <trkpt lat="45.93446" lon="2.75617">
        <ele>593.270752</ele>
        <time>2013-09-25T12:10:01Z</time>
      </trkpt>
      <trkpt lat="45.93451" lon="2.75625">
        <ele>591.8288574</ele>
        <time>2013-09-25T12:10:08Z</time>
      </trkpt>
      <trkpt lat="45.93459" lon="2.75633">
        <ele>590.8674316</ele>
        <time>2013-09-25T12:10:16Z</time>
      </trkpt>
      <trkpt lat="45.9347" lon="2.75642">
        <ele>589.4255371</ele>
        <time>2013-09-25T12:10:28Z</time>
      </trkpt>
      <trkpt lat="45.93483" lon="2.75651">
        <ele>587.5026855</ele>
        <time>2013-09-25T12:10:40Z</time>
      </trkpt>
      <trkpt lat="45.93502" lon="2.75668">
        <ele>585.5800781</ele>
        <time>2013-09-25T12:10:57Z</time>
      </trkpt>
      <trkpt lat="45.93509" lon="2.75683">
        <ele>584.1381836</ele>
        <time>2013-09-25T12:11:09Z</time>
      </trkpt>
      <trkpt lat="45.9351" lon="2.75684">
        <ele>583.6574707</ele>
        <time>2013-09-25T12:11:10Z</time>
      </trkpt>
      <trkpt lat="45.93522" lon="2.757">
        <ele>581.7348633</ele>
        <time>2013-09-25T12:11:20Z</time>
      </trkpt>
      <trkpt lat="45.9353" lon="2.75721">
        <ele>582.2155762</ele>
        <time>2013-09-25T12:11:33Z</time>
      </trkpt>
      <trkpt lat="45.9354" lon="2.7574">
        <ele>582.2155762</ele>
        <time>2013-09-25T12:11:45Z</time>
      </trkpt>
      <trkpt lat="45.93549" lon="2.75762">
        <ele>580.2929688</ele>
        <time>2013-09-25T12:11:59Z</time>
      </trkpt>
      <trkpt lat="45.93553" lon="2.75774">
        <ele>579.331543</ele>
        <time>2013-09-25T12:12:09Z</time>
      </trkpt>
      <trkpt lat="45.93561" lon="2.75784">
        <ele>576.4477539</ele>
        <time>2013-09-25T12:12:22Z</time>
      </trkpt>
      <trkpt lat="45.93571" lon="2.75794">
        <ele>575.0058594</ele>
        <time>2013-09-25T12:12:31Z</time>
      </trkpt>
      <trkpt lat="45.93578" lon="2.75801">
        <ele>573.083252</ele>
        <time>2013-09-25T12:12:39Z</time>
      </trkpt>
      <trkpt lat="45.93585" lon="2.758">
        <ele>571.6408691</ele>
        <time>2013-09-25T12:12:49Z</time>
      </trkpt>
      <trkpt lat="45.93605" lon="2.758">
        <ele>568.7570801</ele>
        <time>2013-09-25T12:13:59Z</time>
      </trkpt>
      <trkpt lat="45.93608" lon="2.75813">
        <ele>566.8344727</ele>
        <time>2013-09-25T12:14:09Z</time>
      </trkpt>
      <trkpt lat="45.93607" lon="2.75818">
        <ele>566.8344727</ele>
        <time>2013-09-25T12:14:14Z</time>
      </trkpt>
      <trkpt lat="45.93601" lon="2.75835">
        <ele>565.873291</ele>
        <time>2013-09-25T12:14:27Z</time>
      </trkpt>
      <trkpt lat="45.93592" lon="2.75836">
        <ele>566.3537598</ele>
        <time>2013-09-25T12:14:34Z</time>
      </trkpt>
      <trkpt lat="45.93579" lon="2.75834">
        <ele>564.4311523</ele>
        <time>2013-09-25T12:14:48Z</time>
      </trkpt>
      <trkpt lat="45.93565" lon="2.75832">
        <ele>565.873291</ele>
        <time>2013-09-25T12:15:01Z</time>
      </trkpt>
      <trkpt lat="45.93551" lon="2.75832">
        <ele>563.9504395</ele>
        <time>2013-09-25T12:15:11Z</time>
      </trkpt>
      <trkpt lat="45.93539" lon="2.75831">
        <ele>563.9504395</ele>
        <time>2013-09-25T12:15:21Z</time>
      </trkpt>
      <trkpt lat="45.9353" lon="2.75828">
        <ele>564.4311523</ele>
        <time>2013-09-25T12:15:31Z</time>
      </trkpt>
      <trkpt lat="45.93517" lon="2.75806">
        <ele>565.3925781</ele>
        <time>2013-09-25T12:15:48Z</time>
      </trkpt>
      <trkpt lat="45.93502" lon="2.75786">
        <ele>565.3925781</ele>
        <time>2013-09-25T12:16:03Z</time>
      </trkpt>
      <trkpt lat="45.93492" lon="2.75777">
        <ele>566.8344727</ele>
        <time>2013-09-25T12:16:16Z</time>
      </trkpt>
      <trkpt lat="45.93478" lon="2.7576">
        <ele>566.8344727</ele>
        <time>2013-09-25T12:16:30Z</time>
      </trkpt>
      <trkpt lat="45.93471" lon="2.75748">
        <ele>565.3925781</ele>
        <time>2013-09-25T12:16:44Z</time>
      </trkpt>
      <trkpt lat="45.93453" lon="2.75733">
        <ele>564.4311523</ele>
        <time>2013-09-25T12:17:02Z</time>
      </trkpt>
      <trkpt lat="45.93439" lon="2.75733">
        <ele>564.4311523</ele>
        <time>2013-09-25T12:17:13Z</time>
      </trkpt>
      <trkpt lat="45.93432" lon="2.7574">
        <ele>564.4311523</ele>
        <time>2013-09-25T12:17:23Z</time>
      </trkpt>
      <trkpt lat="45.93419" lon="2.75746">
        <ele>564.4311523</ele>
        <time>2013-09-25T12:17:35Z</time>
      </trkpt>
      <trkpt lat="45.93408" lon="2.75754">
        <ele>563.9504395</ele>
        <time>2013-09-25T12:17:46Z</time>
      </trkpt>
      <trkpt lat="45.93397" lon="2.75764">
        <ele>563.9504395</ele>
        <time>2013-09-25T12:17:57Z</time>
      </trkpt>
      <trkpt lat="45.93373" lon="2.75799">
        <ele>563.4699707</ele>
        <time>2013-09-25T12:18:28Z</time>
      </trkpt>
      <trkpt lat="45.93369" lon="2.7581">
        <ele>562.9892578</ele>
        <time>2013-09-25T12:18:36Z</time>
      </trkpt>
      <trkpt lat="45.93367" lon="2.75827">
        <ele>562.5085449</ele>
        <time>2013-09-25T12:18:48Z</time>
      </trkpt>
      <trkpt lat="45.93364" lon="2.75848">
        <ele>562.0280762</ele>
        <time>2013-09-25T12:19:02Z</time>
      </trkpt>
      <trkpt lat="45.93361" lon="2.75864">
        <ele>561.0666504</ele>
        <time>2013-09-25T12:19:15Z</time>
      </trkpt>
      <trkpt lat="45.93351" lon="2.75884">
        <ele>560.1052246</ele>
        <time>2013-09-25T12:19:29Z</time>
      </trkpt>
      <trkpt lat="45.9334" lon="2.75916">
        <ele>559.144043</ele>
        <time>2013-09-25T12:19:53Z</time>
      </trkpt>
      <trkpt lat="45.9333" lon="2.75945">
        <ele>559.144043</ele>
        <time>2013-09-25T12:20:14Z</time>
      </trkpt>
      <trkpt lat="45.93312" lon="2.75968">
        <ele>558.6633301</ele>
        <time>2013-09-25T12:20:33Z</time>
      </trkpt>
      <trkpt lat="45.93298" lon="2.75981">
        <ele>559.6247559</ele>
        <time>2013-09-25T12:20:45Z</time>
      </trkpt>
      <trkpt lat="45.93288" lon="2.75987">
        <ele>559.144043</ele>
        <time>2013-09-25T12:21:04Z</time>
      </trkpt>
      <trkpt lat="45.93283" lon="2.75994">
        <ele>559.144043</ele>
        <time>2013-09-25T12:21:11Z</time>
      </trkpt>
      <trkpt lat="45.9326" lon="2.76013">
        <ele>557.7021484</ele>
        <time>2013-09-25T12:21:33Z</time>
      </trkpt>
      <trkpt lat="45.93258" lon="2.7602">
        <ele>556.7407227</ele>
        <time>2013-09-25T12:21:38Z</time>
      </trkpt>
      <trkpt lat="45.93258" lon="2.7602">
        <ele>556.7407227</ele>
        <time>2013-09-25T12:21:53Z</time>
      </trkpt>
      <trkpt lat="45.93262" lon="2.76015">
        <ele>558.6633301</ele>
        <time>2013-09-25T12:22:08Z</time>
      </trkpt>
      <trkpt lat="45.93267" lon="2.76014">
        <ele>562.0280762</ele>
        <time>2013-09-25T12:22:20Z</time>
      </trkpt>
      <trkpt lat="45.93274" lon="2.76014">
        <ele>564.4311523</ele>
        <time>2013-09-25T12:22:32Z</time>
      </trkpt>
      <trkpt lat="45.93286" lon="2.76012">
        <ele>565.3925781</ele>
        <time>2013-09-25T12:22:47Z</time>
      </trkpt>
      <trkpt lat="45.93297" lon="2.76008">
        <ele>568.2763672</ele>
        <time>2013-09-25T12:23:01Z</time>
      </trkpt>
      <trkpt lat="45.93308" lon="2.76008">
        <ele>570.6796875</ele>
        <time>2013-09-25T12:23:13Z</time>
      </trkpt>
      <trkpt lat="45.93318" lon="2.76004">
        <ele>572.6025391</ele>
        <time>2013-09-25T12:23:28Z</time>
      </trkpt>
      <trkpt lat="45.93323" lon="2.75997">
        <ele>574.5251465</ele>
        <time>2013-09-25T12:23:44Z</time>
      </trkpt>
      <trkpt lat="45.93329" lon="2.75994">
        <ele>575.0058594</ele>
        <time>2013-09-25T12:23:50Z</time>
      </trkpt>
      <trkpt lat="45.9334" lon="2.75989">
        <ele>576.9284668</ele>
        <time>2013-09-25T12:24:05Z</time>
      </trkpt>
      <trkpt lat="45.93347" lon="2.75982">
        <ele>579.331543</ele>
        <time>2013-09-25T12:24:21Z</time>
      </trkpt>
      <trkpt lat="45.93351" lon="2.75979">
        <ele>581.2543945</ele>
        <time>2013-09-25T12:24:26Z</time>
      </trkpt>
      <trkpt lat="45.93362" lon="2.75974">
        <ele>582.6962891</ele>
        <time>2013-09-25T12:24:39Z</time>
      </trkpt>
      <trkpt lat="45.93368" lon="2.75964">
        <ele>583.6574707</ele>
        <time>2013-09-25T12:24:53Z</time>
      </trkpt>
      <trkpt lat="45.93383" lon="2.7596">
        <ele>584.1381836</ele>
        <time>2013-09-25T12:25:07Z</time>
      </trkpt>
      <trkpt lat="45.93393" lon="2.75956">
        <ele>586.060791</ele>
        <time>2013-09-25T12:25:20Z</time>
      </trkpt>
      <trkpt lat="45.93407" lon="2.75946">
        <ele>588.9450684</ele>
        <time>2013-09-25T12:25:37Z</time>
      </trkpt>
      <trkpt lat="45.93422" lon="2.75938">
        <ele>590.8674316</ele>
        <time>2013-09-25T12:25:56Z</time>
      </trkpt>
      <trkpt lat="45.93434" lon="2.75927">
        <ele>593.7514648</ele>
        <time>2013-09-25T12:26:13Z</time>
      </trkpt>
      <trkpt lat="45.93441" lon="2.75917">
        <ele>596.635498</ele>
        <time>2013-09-25T12:26:26Z</time>
      </trkpt>
      <trkpt lat="45.93449" lon="2.75912">
        <ele>599.5192871</ele>
        <time>2013-09-25T12:26:39Z</time>
      </trkpt>
      <trkpt lat="45.93461" lon="2.75911">
        <ele>600.9611816</ele>
        <time>2013-09-25T12:26:51Z</time>
      </trkpt>
      <trkpt lat="45.93466" lon="2.75911">
        <ele>604.3261719</ele>
        <time>2013-09-25T12:27:02Z</time>
      </trkpt>
      <trkpt lat="45.93476" lon="2.7592">
        <ele>605.7680664</ele>
        <time>2013-09-25T12:27:14Z</time>
      </trkpt>
      <trkpt lat="45.93486" lon="2.75931">
        <ele>607.2099609</ele>
        <time>2013-09-25T12:27:29Z</time>
      </trkpt>
      <trkpt lat="45.93499" lon="2.75945">
        <ele>609.1325684</ele>
        <time>2013-09-25T12:27:46Z</time>
      </trkpt>
      <trkpt lat="45.9351" lon="2.75958">
        <ele>611.5358887</ele>
        <time>2013-09-25T12:28:02Z</time>
      </trkpt>
      <trkpt lat="45.93511" lon="2.75959">
        <ele>612.4970703</ele>
        <time>2013-09-25T12:28:04Z</time>
      </trkpt>
      <trkpt lat="45.93522" lon="2.75974">
        <ele>614.9003906</ele>
        <time>2013-09-25T12:28:21Z</time>
      </trkpt>
      <trkpt lat="45.9353" lon="2.75987">
        <ele>618.2648926</ele>
        <time>2013-09-25T12:28:35Z</time>
      </trkpt>
      <trkpt lat="45.93535" lon="2.76008">
        <ele>621.6296387</ele>
        <time>2013-09-25T12:28:54Z</time>
      </trkpt>
      <trkpt lat="45.93537" lon="2.76017">
        <ele>622.5910645</ele>
        <time>2013-09-25T12:29:01Z</time>
      </trkpt>
      <trkpt lat="45.93539" lon="2.7603">
        <ele>623.5524902</ele>
        <time>2013-09-25T12:29:13Z</time>
      </trkpt>
      <trkpt lat="45.93536" lon="2.76039">
        <ele>623.5524902</ele>
        <time>2013-09-25T12:29:20Z</time>
      </trkpt>
      <trkpt lat="45.9353" lon="2.76064">
        <ele>625.9555664</ele>
        <time>2013-09-25T12:29:38Z</time>
      </trkpt>
      <trkpt lat="45.93528" lon="2.76089">
        <ele>627.8781738</ele>
        <time>2013-09-25T12:29:56Z</time>
      </trkpt>
      <trkpt lat="45.93529" lon="2.76098">
        <ele>628.3588867</ele>
        <time>2013-09-25T12:30:02Z</time>
      </trkpt>
      <trkpt lat="45.93538" lon="2.76121">
        <ele>629.8007813</ele>
        <time>2013-09-25T12:30:20Z</time>
      </trkpt>
      <trkpt lat="45.93546" lon="2.76136">
        <ele>631.2429199</ele>
        <time>2013-09-25T12:30:34Z</time>
      </trkpt>
      <trkpt lat="45.93558" lon="2.76156">
        <ele>632.2041016</ele>
        <time>2013-09-25T12:30:52Z</time>
      </trkpt>
      <trkpt lat="45.93559" lon="2.76157">
        <ele>632.2041016</ele>
        <time>2013-09-25T12:30:53Z</time>
      </trkpt>
      <trkpt lat="45.93564" lon="2.76164">
        <ele>633.6459961</ele>
        <time>2013-09-25T12:30:59Z</time>
      </trkpt>
      <trkpt lat="45.93577" lon="2.76183">
        <ele>636.0495605</ele>
        <time>2013-09-25T12:31:16Z</time>
      </trkpt>
      <trkpt lat="45.93594" lon="2.76198">
        <ele>637.0107422</ele>
        <time>2013-09-25T12:31:35Z</time>
      </trkpt>
      <trkpt lat="45.9361" lon="2.76207">
        <ele>637.972168</ele>
        <time>2013-09-25T12:31:50Z</time>
      </trkpt>
      <trkpt lat="45.93626" lon="2.76222">
        <ele>639.8947754</ele>
        <time>2013-09-25T12:32:08Z</time>
      </trkpt>
      <trkpt lat="45.93641" lon="2.76234">
        <ele>640.855957</ele>
        <time>2013-09-25T12:32:23Z</time>
      </trkpt>
      <trkpt lat="45.93655" lon="2.76243">
        <ele>641.8173828</ele>
        <time>2013-09-25T12:32:38Z</time>
      </trkpt>
      <trkpt lat="45.93674" lon="2.76255">
        <ele>642.7788086</ele>
        <time>2013-09-25T12:32:56Z</time>
      </trkpt>
      <trkpt lat="45.93693" lon="2.76267">
        <ele>643.7399902</ele>
        <time>2013-09-25T12:33:12Z</time>
      </trkpt>
      <trkpt lat="45.93715" lon="2.76281">
        <ele>644.2207031</ele>
        <time>2013-09-25T12:33:29Z</time>
      </trkpt>
      <trkpt lat="45.93734" lon="2.76299">
        <ele>644.7011719</ele>
        <time>2013-09-25T12:33:47Z</time>
      </trkpt>
      <trkpt lat="45.93752" lon="2.76316">
        <ele>647.5852051</ele>
        <time>2013-09-25T12:34:05Z</time>
      </trkpt>
      <trkpt lat="45.93767" lon="2.76332">
        <ele>647.5852051</ele>
        <time>2013-09-25T12:34:20Z</time>
      </trkpt>
      <trkpt lat="45.93779" lon="2.76344">
        <ele>648.065918</ele>
        <time>2013-09-25T12:34:34Z</time>
      </trkpt>
      <trkpt lat="45.93781" lon="2.76338">
        <ele>647.5852051</ele>
        <time>2013-09-25T12:34:47Z</time>
      </trkpt>
      <trkpt lat="45.93783" lon="2.76333">
        <ele>647.1044922</ele>
        <time>2013-09-25T12:34:59Z</time>
      </trkpt>
      <trkpt lat="45.93783" lon="2.76327">
        <ele>647.5852051</ele>
        <time>2013-09-25T12:35:33Z</time>
      </trkpt>
      <trkpt lat="45.93782" lon="2.7634">
        <ele>647.5852051</ele>
        <time>2013-09-25T12:35:54Z</time>
      </trkpt>
      <trkpt lat="45.93784" lon="2.76339">
        <ele>647.5852051</ele>
        <time>2013-09-25T12:36:13Z</time>
      </trkpt>
      <trkpt lat="45.93784" lon="2.7634">
        <ele>646.6240234</ele>
        <time>2013-09-25T12:36:33Z</time>
      </trkpt>
      <trkpt lat="45.93785" lon="2.76341">
        <ele>646.6240234</ele>
        <time>2013-09-25T12:36:35Z</time>
      </trkpt>
      <trkpt lat="45.93797" lon="2.76355">
        <ele>648.5463867</ele>
        <time>2013-09-25T12:36:52Z</time>
      </trkpt>
      <trkpt lat="45.9381" lon="2.76367">
        <ele>649.0270996</ele>
        <time>2013-09-25T12:37:09Z</time>
      </trkpt>
      <trkpt lat="45.93826" lon="2.76382">
        <ele>650.4692383</ele>
        <time>2013-09-25T12:37:27Z</time>
      </trkpt>
      <trkpt lat="45.93845" lon="2.76399">
        <ele>651.9111328</ele>
        <time>2013-09-25T12:37:47Z</time>
      </trkpt>
      <trkpt lat="45.93851" lon="2.76405">
        <ele>652.8725586</ele>
        <time>2013-09-25T12:37:55Z</time>
      </trkpt>
      <trkpt lat="45.93869" lon="2.76415">
        <ele>650.949707</ele>
        <time>2013-09-25T12:38:13Z</time>
      </trkpt>
      <trkpt lat="45.93891" lon="2.76421">
        <ele>650.4692383</ele>
        <time>2013-09-25T12:38:33Z</time>
      </trkpt>
      <trkpt lat="45.93917" lon="2.76427">
        <ele>651.9111328</ele>
        <time>2013-09-25T12:38:54Z</time>
      </trkpt>
      <trkpt lat="45.93937" lon="2.76433">
        <ele>651.4304199</ele>
        <time>2013-09-25T12:39:12Z</time>
      </trkpt>
      <trkpt lat="45.93957" lon="2.76441">
        <ele>652.3918457</ele>
        <time>2013-09-25T12:39:31Z</time>
      </trkpt>
      <trkpt lat="45.93973" lon="2.76446">
        <ele>653.3532715</ele>
        <time>2013-09-25T12:39:47Z</time>
      </trkpt>
      <trkpt lat="45.93995" lon="2.76454">
        <ele>655.7565918</ele>
        <time>2013-09-25T12:40:06Z</time>
      </trkpt>
      <trkpt lat="45.94005" lon="2.76444">
        <ele>654.795166</ele>
        <time>2013-09-25T12:40:19Z</time>
      </trkpt>
      <trkpt lat="45.94017" lon="2.76412">
        <ele>654.3146973</ele>
        <time>2013-09-25T12:40:40Z</time>
      </trkpt>
      <trkpt lat="45.94033" lon="2.76393">
        <ele>652.3918457</ele>
        <time>2013-09-25T12:40:59Z</time>
      </trkpt>
      <trkpt lat="45.94056" lon="2.76374">
        <ele>651.9111328</ele>
        <time>2013-09-25T12:41:21Z</time>
      </trkpt>
      <trkpt lat="45.94079" lon="2.7636">
        <ele>652.8725586</ele>
        <time>2013-09-25T12:41:41Z</time>
      </trkpt>
      <trkpt lat="45.94106" lon="2.76343">
        <ele>652.8725586</ele>
        <time>2013-09-25T12:42:03Z</time>
      </trkpt>
      <trkpt lat="45.94135" lon="2.76324">
        <ele>652.3918457</ele>
        <time>2013-09-25T12:42:27Z</time>
      </trkpt>
      <trkpt lat="45.94165" lon="2.76307">
        <ele>654.3146973</ele>
        <time>2013-09-25T12:42:52Z</time>
      </trkpt>
      <trkpt lat="45.94189" lon="2.763">
        <ele>654.795166</ele>
        <time>2013-09-25T12:43:12Z</time>
      </trkpt>
      <trkpt lat="45.94212" lon="2.76299">
        <ele>653.8339844</ele>
        <time>2013-09-25T12:43:31Z</time>
      </trkpt>
      <trkpt lat="45.9423" lon="2.76302">
        <ele>652.8725586</ele>
        <time>2013-09-25T12:43:50Z</time>
      </trkpt>
      <trkpt lat="45.94249" lon="2.763">
        <ele>652.8725586</ele>
        <time>2013-09-25T12:44:07Z</time>
      </trkpt>
      <trkpt lat="45.94271" lon="2.763">
        <ele>652.8725586</ele>
        <time>2013-09-25T12:44:26Z</time>
      </trkpt>
      <trkpt lat="45.94291" lon="2.76307">
        <ele>652.3918457</ele>
        <time>2013-09-25T12:44:44Z</time>
      </trkpt>
      <trkpt lat="45.94313" lon="2.76322">
        <ele>651.9111328</ele>
        <time>2013-09-25T12:45:04Z</time>
      </trkpt>
      <trkpt lat="45.94331" lon="2.76352">
        <ele>651.9111328</ele>
        <time>2013-09-25T12:45:29Z</time>
      </trkpt>
      <trkpt lat="45.94353" lon="2.76379">
        <ele>651.9111328</ele>
        <time>2013-09-25T12:45:52Z</time>
      </trkpt>
      <trkpt lat="45.94376" lon="2.76393">
        <ele>651.9111328</ele>
        <time>2013-09-25T12:46:14Z</time>
      </trkpt>
    </trkseg>
  </trk>
</gpx>